Observation data for Fritch on 07/23/2019      Previous  Date  Next       Current Mesonet Observations  Soil Data  Daily Summary Page  Observations in Plain Language
KFR1 230500Z 10008KT 23/14 A3033 RMK A01 T02300136  RH  055%=      5-min Rain = 0
KFR1 230501Z 10008KT 23/14 A3033 RMK A01 T02300135  RH  055%=      5-min Rain = 0
KFR1 230502Z 10009KT 23/14 A3033 RMK A01 T02300135  RH  055%=      5-min Rain = 0
KFR1 230503Z 10010KT 23/14 A3033 RMK A01 T02300135  RH  055%=      5-min Rain = 0
KFR1 230504Z 10010KT 23/14 A3033 RMK A01 T02300135  RH  055%=      5-min Rain = 0
KFR1 230505Z 10010KT 23/14 A3033 RMK A01 T02300135  RH  055%=      5-min Rain = 0
KFR1 230506Z 10009KT 23/14 A3033 RMK A01 T02300135  RH  055%=      5-min Rain = 0
KFR1 230507Z 10009KT 23/14 A3033 RMK A01 T02300135  RH  055%=      5-min Rain = 0
KFR1 230508Z 10009KT 23/14 A3033 RMK A01 T02290135  RH  055%=      5-min Rain = 0
KFR1 230509Z 10009KT 23/14 A3032 RMK A01 T02290135  RH  055%=      5-min Rain = 0
KFR1 230510Z 10008KT 23/14 A3032 RMK A01 T02290135  RH  055%=      5-min Rain = 0
KFR1 230511Z 10008KT 23/14 A3032 RMK A01 T02290135  RH  055%=      5-min Rain = 0
KFR1 230512Z 10007KT 23/14 A3033 RMK A01 T02280135  RH  056%=      5-min Rain = 0
KFR1 230513Z 10008KT 23/14 A3033 RMK A01 T02270135  RH  056%=      5-min Rain = 0
KFR1 230514Z 10007KT 23/14 A3033 RMK A01 T02260135  RH  056%=      5-min Rain = 0
KFR1 230515Z 09007KT 23/14 A3033 RMK A01 T02260135  RH  056%=      5-min Rain = 0
KFR1 230516Z 10006KT 23/14 A3033 RMK A01 T02250135  RH  056%=      5-min Rain = 0
KFR1 230517Z 10007KT 23/14 A3033 RMK A01 T02250135  RH  057%=      5-min Rain = 0
KFR1 230518Z 10007KT 22/14 A3033 RMK A01 T02240135  RH  057%=      5-min Rain = 0
KFR1 230519Z 10007KT 22/14 A3033 RMK A01 T02240135  RH  057%=      5-min Rain = 0
KFR1 230520Z 10007KT 22/14 A3033 RMK A01 T02240135  RH  057%=      5-min Rain = 0
KFR1 230521Z 10008KT 22/14 A3033 RMK A01 T02240135  RH  057%=      5-min Rain = 0
KFR1 230522Z 10007KT 22/14 A3033 RMK A01 T02230135  RH  057%=      5-min Rain = 0
KFR1 230523Z 10007KT 22/14 A3032 RMK A01 T02220135  RH  058%=      5-min Rain = 0
KFR1 230524Z 10007KT 22/14 A3032 RMK A01 T02220135  RH  058%=      5-min Rain = 0
KFR1 230525Z 10007KT 22/14 A3032 RMK A01 T02220135  RH  058%=      5-min Rain = 0
KFR1 230526Z 10007KT 22/14 A3032 RMK A01 T02220135  RH  058%=      5-min Rain = 0
KFR1 230527Z 10007KT 22/14 A3032 RMK A01 T02210135  RH  058%=      5-min Rain = 0
KFR1 230528Z 10006KT 22/14 A3032 RMK A01 T02200135  RH  058%=      5-min Rain = 0
KFR1 230529Z 11007KT 22/14 A3033 RMK A01 T02200135  RH  058%=      5-min Rain = 0
KFR1 230530Z 10007KT 22/14 A3033 RMK A01 T02200135  RH  059%=      5-min Rain = 0
KFR1 230531Z 11006KT 22/14 A3033 RMK A01 T02190135  RH  059%=      5-min Rain = 0
KFR1 230532Z 11007KT 22/14 A3033 RMK A01 T02190135  RH  059%=      5-min Rain = 0
KFR1 230533Z 10007KT 22/14 A3033 RMK A01 T02190135  RH  059%=      5-min Rain = 0
KFR1 230534Z 11007KT 22/14 A3033 RMK A01 T02180135  RH  059%=      5-min Rain = 0
KFR1 230535Z 11008KT 22/14 A3033 RMK A01 T02180135  RH  059%=      5-min Rain = 0
KFR1 230536Z 11007KT 22/14 A3033 RMK A01 T02180136  RH  059%=      5-min Rain = 0
KFR1 230537Z 10007KT 22/14 A3033 RMK A01 T02180136  RH  059%=      5-min Rain = 0
KFR1 230538Z 11008KT 22/14 A3033 RMK A01 T02170135  RH  060%=      5-min Rain = 0
KFR1 230539Z 10007KT 22/14 A3033 RMK A01 T02170135  RH  060%=      5-min Rain = 0
KFR1 230540Z 10008KT 22/14 A3033 RMK A01 T02170135  RH  059%=      5-min Rain = 0
KFR1 230541Z 10007KT 22/14 A3033 RMK A01 T02180135  RH  059%=      5-min Rain = 0
KFR1 230542Z 10007KT 22/14 A3033 RMK A01 T02180135  RH  059%=      5-min Rain = 0
KFR1 230543Z 10006KT 22/14 A3033 RMK A01 T02170135  RH  060%=      5-min Rain = 0
KFR1 230544Z 10006KT 22/14 A3033 RMK A01 T02160135  RH  060%=      5-min Rain = 0
KFR1 230545Z 10006KT 22/14 A3033 RMK A01 T02160135  RH  060%=      5-min Rain = 0
KFR1 230546Z 10006KT 22/14 A3033 RMK A01 T02160135  RH  060%=      5-min Rain = 0
KFR1 230547Z 10006KT 22/13 A3033 RMK A01 T02160134  RH  060%=      5-min Rain = 0
KFR1 230548Z 10006KT 22/13 A3033 RMK A01 T02160134  RH  060%=      5-min Rain = 0
KFR1 230549Z 10006KT 22/13 A3033 RMK A01 T02150134  RH  060%=      5-min Rain = 0
KFR1 230550Z 10006KT 22/13 A3033 RMK A01 T02150134  RH  060%=      5-min Rain = 0
KFR1 230551Z 10006KT 22/13 A3033 RMK A01 T02150134  RH  060%=      5-min Rain = 0
KFR1 230552Z 10006KT 21/13 A3033 RMK A01 T02140134  RH  060%=      5-min Rain = 0
KFR1 230553Z 10006KT 21/13 A3033 RMK A01 T02140134  RH  060%=      5-min Rain = 0
KFR1 230554Z 10006KT 21/13 A3033 RMK A01 T02130134  RH  060%=      5-min Rain = 0
KFR1 230555Z 10006KT 21/13 A3033 RMK A01 T02130134  RH  061%=      5-min Rain = 0
KFR1 230556Z 10006KT 21/13 A3033 RMK A01 T02130134  RH  061%=      5-min Rain = 0
KFR1 230557Z 11006KT 21/13 A3033 RMK A01 T02130134  RH  061%=      5-min Rain = 0
KFR1 230558Z 11006KT 21/13 A3033 RMK A01 T02120134  RH  061%=      5-min Rain = 0
KFR1 230559Z 11006KT 21/13 A3033 RMK A01 T02120134  RH  061%=      5-min Rain = 0
KFR1 230600Z 11006KT 21/13 A3033 RMK A01 T02120134  RH  061%=      5-min Rain = 0
KFR1 230601Z 11006KT 21/13 A3033 RMK A01 T02120134  RH  061%=      5-min Rain = 0
KFR1 230602Z 12006KT 21/13 A3033 RMK A01 T02120134  RH  061%=      5-min Rain = 0
KFR1 230603Z 12006KT 21/13 A3033 RMK A01 T02130133  RH  061%=      5-min Rain = 0
KFR1 230604Z 12006KT 21/13 A3033 RMK A01 T02130133  RH  060%=      5-min Rain = 0
KFR1 230605Z 12007KT 21/13 A3033 RMK A01 T02130133  RH  060%=      5-min Rain = 0
KFR1 230606Z 12007KT 21/13 A3033 RMK A01 T02130132  RH  060%=      5-min Rain = 0
KFR1 230607Z 12006KT 21/13 A3033 RMK A01 T02130132  RH  060%=      5-min Rain = 0
KFR1 230608Z 11007KT 21/13 A3033 RMK A01 T02130132  RH  060%=      5-min Rain = 0
KFR1 230609Z 11006KT 21/13 A3033 RMK A01 T02130132  RH  060%=      5-min Rain = 0
KFR1 230610Z 11006KT 21/13 A3033 RMK A01 T02130132  RH  060%=      5-min Rain = 0
KFR1 230611Z 11007KT 21/13 A3033 RMK A01 T02130132  RH  060%=      5-min Rain = 0
KFR1 230612Z 11007KT 21/13 A3033 RMK A01 T02120131  RH  060%=      5-min Rain = 0
KFR1 230613Z 11007KT 21/13 A3033 RMK A01 T02120131  RH  060%=      5-min Rain = 0
KFR1 230614Z 11007KT 21/13 A3033 RMK A01 T02120131  RH  060%=      5-min Rain = 0
KFR1 230615Z 11007KT 21/13 A3033 RMK A01 T02120131  RH  060%=      5-min Rain = 0
KFR1 230616Z 10007KT 21/13 A3033 RMK A01 T02120131  RH  060%=      5-min Rain = 0
KFR1 230617Z 10007KT 21/13 A3033 RMK A01 T02120130  RH  060%=      5-min Rain = 0
KFR1 230618Z 10007KT 21/13 A3033 RMK A01 T02120130  RH  060%=      5-min Rain = 0
KFR1 230619Z 10007KT 21/13 A3033 RMK A01 T02120130  RH  060%=      5-min Rain = 0
KFR1 230620Z 11007KT 21/13 A3033 RMK A01 T02120130  RH  060%=      5-min Rain = 0
KFR1 230621Z 11007KT 21/13 A3033 RMK A01 T02120130  RH  060%=      5-min Rain = 0
KFR1 230622Z 11006KT 21/13 A3033 RMK A01 T02120130  RH  060%=      5-min Rain = 0
KFR1 230623Z 11006KT 21/13 A3033 RMK A01 T02110131  RH  060%=      5-min Rain = 0
KFR1 230624Z 11006KT 21/13 A3033 RMK A01 T02100130  RH  060%=      5-min Rain = 0
KFR1 230625Z 11007KT 21/13 A3033 RMK A01 T02110130  RH  060%=      5-min Rain = 0
KFR1 230626Z 12006KT 21/13 A3032 RMK A01 T02100130  RH  060%=      5-min Rain = 0
KFR1 230627Z 12007KT 21/13 A3032 RMK A01 T02110130  RH  060%=      5-min Rain = 0
KFR1 230628Z 12006KT 21/13 A3032 RMK A01 T02110129  RH  060%=      5-min Rain = 0
KFR1 230629Z 12007KT 21/13 A3032 RMK A01 T02110129  RH  059%=      5-min Rain = 0
KFR1 230630Z 12007KT 21/13 A3032 RMK A01 T02110129  RH  059%=      5-min Rain = 0
KFR1 230631Z 11006KT 21/13 A3032 RMK A01 T02110129  RH  059%=      5-min Rain = 0
KFR1 230632Z 11006KT 21/13 A3032 RMK A01 T02110128  RH  059%=      5-min Rain = 0
KFR1 230633Z 12006KT 21/13 A3032 RMK A01 T02110128  RH  059%=      5-min Rain = 0
KFR1 230634Z 12006KT 21/13 A3032 RMK A01 T02110128  RH  059%=      5-min Rain = 0
KFR1 230635Z 12006KT 21/13 A3032 RMK A01 T02100128  RH  059%=      5-min Rain = 0
KFR1 230636Z 12007KT 21/13 A3032 RMK A01 T02100127  RH  059%=      5-min Rain = 0
KFR1 230637Z 12007KT 21/13 A3032 RMK A01 T02110128  RH  059%=      5-min Rain = 0
KFR1 230638Z 12007KT 21/13 A3032 RMK A01 T02110127  RH  059%=      5-min Rain = 0
KFR1 230639Z 12007KT 21/13 A3032 RMK A01 T02110128  RH  059%=      5-min Rain = 0
KFR1 230640Z 12007KT 21/13 A3032 RMK A01 T02100127  RH  059%=      5-min Rain = 0
KFR1 230641Z 12006KT 21/13 A3032 RMK A01 T02100127  RH  059%=      5-min Rain = 0
KFR1 230642Z 12007KT 21/13 A3032 RMK A01 T02090127  RH  059%=      5-min Rain = 0
KFR1 230643Z 12006KT 21/13 A3032 RMK A01 T02090127  RH  060%=      5-min Rain = 0
KFR1 230644Z 12006KT 21/13 A3032 RMK A01 T02080127  RH  060%=      5-min Rain = 0
KFR1 230645Z 12006KT 21/13 A3032 RMK A01 T02080127  RH  060%=      5-min Rain = 0
KFR1 230646Z 12008KT 21/13 A3032 RMK A01 T02070127  RH  060%=      5-min Rain = 0
KFR1 230647Z 12007KT 21/13 A3032 RMK A01 T02080127  RH  060%=      5-min Rain = 0
KFR1 230648Z 12007KT 21/13 A3032 RMK A01 T02080127  RH  060%=      5-min Rain = 0
KFR1 230649Z 12007KT 21/13 A3032 RMK A01 T02080127  RH  060%=      5-min Rain = 0
KFR1 230650Z 12007KT 21/13 A3032 RMK A01 T02080127  RH  060%=      5-min Rain = 0
KFR1 230651Z 12008KT 21/13 A3032 RMK A01 T02070127  RH  060%=      5-min Rain = 0
KFR1 230652Z 12007KT 21/13 A3032 RMK A01 T02070127  RH  060%=      5-min Rain = 0
KFR1 230653Z 12007KT 21/13 A3032 RMK A01 T02070127  RH  060%=      5-min Rain = 0
KFR1 230654Z 12007KT 21/13 A3032 RMK A01 T02070127  RH  060%=      5-min Rain = 0
KFR1 230655Z 12007KT 21/13 A3032 RMK A01 T02070127  RH  060%=      5-min Rain = 0
KFR1 230656Z 12008KT 21/13 A3032 RMK A01 T02070127  RH  060%=      5-min Rain = 0
KFR1 230657Z 12007KT 21/13 A3032 RMK A01 T02060126  RH  060%=      5-min Rain = 0
KFR1 230658Z 12007KT 21/13 A3032 RMK A01 T02060126  RH  060%=      5-min Rain = 0
KFR1 230659Z 11006KT 21/13 A3032 RMK A01 T02060126  RH  060%=      5-min Rain = 0
KFR1 230700Z 11007KT 21/13 A3032 RMK A01 T02060126  RH  060%=      5-min Rain = 0
KFR1 230701Z 12006KT 21/13 A3032 RMK A01 T02050125  RH  060%=      5-min Rain = 0
KFR1 230702Z 12007KT 21/13 A3032 RMK A01 T02050126  RH  060%=      5-min Rain = 0
KFR1 230703Z 12007KT 21/13 A3032 RMK A01 T02050125  RH  060%=      5-min Rain = 0
KFR1 230704Z 12007KT 21/13 A3032 RMK A01 T02050126  RH  060%=      5-min Rain = 0
KFR1 230705Z 12006KT 20/13 A3031 RMK A01 T02040125  RH  060%=      5-min Rain = 0
KFR1 230706Z 12007KT 20/13 A3031 RMK A01 T02040125  RH  060%=      5-min Rain = 0
KFR1 230707Z 12007KT 21/13 A3031 RMK A01 T02050125  RH  060%=      5-min Rain = 0
KFR1 230708Z 12007KT 21/12 A3031 RMK A01 T02050124  RH  060%=      5-min Rain = 0
KFR1 230709Z 12005KT 21/12 A3032 RMK A01 T02050124  RH  060%=      5-min Rain = 0
KFR1 230710Z 12005KT 21/12 A3032 RMK A01 T02050124  RH  060%=      5-min Rain = 0
KFR1 230711Z 12006KT 21/12 A3032 RMK A01 T02050124  RH  060%=      5-min Rain = 0
KFR1 230712Z 12005KT 21/12 A3032 RMK A01 T02050124  RH  060%=      5-min Rain = 0
KFR1 230713Z 12005KT 21/12 A3032 RMK A01 T02050124  RH  060%=      5-min Rain = 0
KFR1 230714Z 12005KT 20/12 A3032 RMK A01 T02040124  RH  060%=      5-min Rain = 0
KFR1 230715Z 12005KT 20/12 A3032 RMK A01 T02040124  RH  060%=      5-min Rain = 0
KFR1 230716Z 12004KT 20/12 A3032 RMK A01 T02040124  RH  060%=      5-min Rain = 0
KFR1 230717Z 12004KT 20/12 A3032 RMK A01 T02040123  RH  060%=      5-min Rain = 0
KFR1 230718Z 12004KT 20/12 A3032 RMK A01 T02040124  RH  060%=      5-min Rain = 0
KFR1 230719Z 11004KT 20/12 A3032 RMK A01 T02040124  RH  060%=      5-min Rain = 0
KFR1 230720Z 12004KT 20/12 A3032 RMK A01 T02030124  RH  060%=      5-min Rain = 0
KFR1 230721Z 11003KT 20/12 A3032 RMK A01 T02020124  RH  061%=      5-min Rain = 0
KFR1 230722Z 12004KT 20/12 A3032 RMK A01 T02010124  RH  061%=      5-min Rain = 0
KFR1 230723Z 12004KT 20/12 A3032 RMK A01 T02000124  RH  061%=      5-min Rain = 0
KFR1 230724Z 12004KT 20/12 A3032 RMK A01 T02000124  RH  061%=      5-min Rain = 0
KFR1 230725Z 11004KT 20/12 A3032 RMK A01 T02000124  RH  062%=      5-min Rain = 0
KFR1 230726Z 11004KT 20/12 A3032 RMK A01 T02000124  RH  062%=      5-min Rain = 0
KFR1 230727Z 11005KT 20/12 A3032 RMK A01 T01990124  RH  062%=      5-min Rain = 0
KFR1 230728Z 10005KT 20/12 A3032 RMK A01 T01990124  RH  062%=      5-min Rain = 0
KFR1 230729Z 10005KT 20/12 A3032 RMK A01 T01980124  RH  062%=      5-min Rain = 0
KFR1 230730Z 10004KT 20/12 A3032 RMK A01 T01970124  RH  062%=      5-min Rain = 0
KFR1 230731Z 10005KT 20/12 A3032 RMK A01 T01980124  RH  062%=      5-min Rain = 0
KFR1 230732Z 10004KT 20/12 A3032 RMK A01 T01980124  RH  062%=      5-min Rain = 0
KFR1 230733Z 10004KT 20/12 A3032 RMK A01 T01980124  RH  062%=      5-min Rain = 0
KFR1 230734Z 09004KT 20/12 A3032 RMK A01 T01970124  RH  063%=      5-min Rain = 0
KFR1 230735Z 09004KT 20/12 A3032 RMK A01 T01970124  RH  062%=      5-min Rain = 0
KFR1 230736Z 09004KT 20/12 A3032 RMK A01 T01970123  RH  062%=      5-min Rain = 0
KFR1 230737Z 08003KT 20/12 A3032 RMK A01 T01970124  RH  063%=      5-min Rain = 0
KFR1 230738Z 09003KT 20/12 A3032 RMK A01 T01960124  RH  063%=      5-min Rain = 0
KFR1 230739Z 09004KT 20/12 A3032 RMK A01 T01950123  RH  063%=      5-min Rain = 0
KFR1 230740Z 10004KT 20/12 A3032 RMK A01 T01950124  RH  063%=      5-min Rain = 0
KFR1 230741Z 10004KT 20/12 A3032 RMK A01 T01950124  RH  063%=      5-min Rain = 0
KFR1 230742Z 10004KT 20/12 A3032 RMK A01 T01950124  RH  063%=      5-min Rain = 0
KFR1 230743Z 09004KT 20/12 A3032 RMK A01 T01950124  RH  063%=      5-min Rain = 0
KFR1 230744Z 10004KT 20/12 A3032 RMK A01 T01950124  RH  064%=      5-min Rain = 0
KFR1 230745Z 09004KT 19/12 A3032 RMK A01 T01940124  RH  064%=      5-min Rain = 0
KFR1 230746Z 10004KT 19/12 A3032 RMK A01 T01940124  RH  064%=      5-min Rain = 0
KFR1 230747Z 10004KT 19/12 A3032 RMK A01 T01940124  RH  064%=      5-min Rain = 0
KFR1 230748Z 10004KT 19/12 A3032 RMK A01 T01940124  RH  064%=      5-min Rain = 0
KFR1 230749Z 10004KT 19/12 A3032 RMK A01 T01930123  RH  064%=      5-min Rain = 0
KFR1 230750Z 10004KT 19/12 A3032 RMK A01 T01930123  RH  064%=      5-min Rain = 0
KFR1 230751Z 10005KT 19/12 A3032 RMK A01 T01940124  RH  064%=      5-min Rain = 0
KFR1 230752Z 10005KT 19/12 A3032 RMK A01 T01930123  RH  064%=      5-min Rain = 0
KFR1 230753Z 10005KT 19/12 A3032 RMK A01 T01930124  RH  064%=      5-min Rain = 0
KFR1 230754Z 10005KT 19/12 A3032 RMK A01 T01930123  RH  064%=      5-min Rain = 0
KFR1 230755Z 10006KT 19/12 A3032 RMK A01 T01930123  RH  064%=      5-min Rain = 0
KFR1 230756Z 10006KT 19/12 A3032 RMK A01 T01940124  RH  064%=      5-min Rain = 0
KFR1 230757Z 11006KT 19/12 A3032 RMK A01 T01940124  RH  064%=      5-min Rain = 0
KFR1 230758Z 11006KT 19/12 A3032 RMK A01 T01940124  RH  064%=      5-min Rain = 0
KFR1 230759Z 11006KT 19/12 A3032 RMK A01 T01930124  RH  064%=      5-min Rain = 0
KFR1 230800Z 12006KT 19/12 A3032 RMK A01 T01930124  RH  064%=      5-min Rain = 0
KFR1 230801Z 12006KT 19/12 A3032 RMK A01 T01940124  RH  064%=      5-min Rain = 0
KFR1 230802Z 12006KT 20/12 A3032 RMK A01 T01950124  RH  063%=      5-min Rain = 0
KFR1 230803Z 13005KT 20/12 A3032 RMK A01 T01960124  RH  063%=      5-min Rain = 0
KFR1 230804Z 13005KT 20/12 A3032 RMK A01 T01960123  RH  063%=      5-min Rain = 0
KFR1 230805Z 13006KT 20/12 A3032 RMK A01 T01970123  RH  062%=      5-min Rain = 0
KFR1 230806Z 14005KT 20/12 A3032 RMK A01 T01970123  RH  062%=      5-min Rain = 0
KFR1 230807Z 13005KT 20/12 A3032 RMK A01 T01970123  RH  062%=      5-min Rain = 0
KFR1 230808Z 14005KT 20/12 A3032 RMK A01 T01980123  RH  062%=      5-min Rain = 0
KFR1 230809Z 13004KT 20/12 A3032 RMK A01 T01980123  RH  062%=      5-min Rain = 0
KFR1 230810Z 12005KT 20/12 A3032 RMK A01 T01980123  RH  062%=      5-min Rain = 0
KFR1 230811Z 12004KT 20/12 A3032 RMK A01 T01980123  RH  062%=      5-min Rain = 0
KFR1 230812Z 11004KT 20/12 A3032 RMK A01 T01980123  RH  062%=      5-min Rain = 0
KFR1 230813Z 11003KT 20/12 A3032 RMK A01 T01970123  RH  062%=      5-min Rain = 0
KFR1 230814Z 11002KT 20/12 A3032 RMK A01 T01960123  RH  062%=      5-min Rain = 0
KFR1 230815Z 11002KT 20/12 A3032 RMK A01 T01960123  RH  063%=      5-min Rain = 0
KFR1 230816Z 13002KT 20/12 A3032 RMK A01 T01960123  RH  063%=      5-min Rain = 0
KFR1 230817Z 13001KT 20/12 A3032 RMK A01 T01960123  RH  063%=      5-min Rain = 0
KFR1 230818Z 14002KT 20/12 A3032 RMK A01 T01960123  RH  063%=      5-min Rain = 0
KFR1 230819Z 17001KT 20/12 A3032 RMK A01 T01960123  RH  063%=      5-min Rain = 0
KFR1 230820Z 16001KT 20/12 A3032 RMK A01 T01950123  RH  063%=      5-min Rain = 0
KFR1 230821Z 18001KT 20/12 A3032 RMK A01 T01950123  RH  063%=      5-min Rain = 0
KFR1 230822Z 19001KT 20/12 A3032 RMK A01 T01950123  RH  063%=      5-min Rain = 0
KFR1 230823Z 19002KT 19/12 A3032 RMK A01 T01940123  RH  063%=      5-min Rain = 0
KFR1 230824Z 16002KT 19/12 A3032 RMK A01 T01940123  RH  063%=      5-min Rain = 0
KFR1 230825Z 16002KT 19/12 A3032 RMK A01 T01930123  RH  064%=      5-min Rain = 0
KFR1 230826Z 14003KT 19/12 A3032 RMK A01 T01930123  RH  064%=      5-min Rain = 0
KFR1 230827Z 14003KT 19/12 A3032 RMK A01 T01930123  RH  064%=      5-min Rain = 0
KFR1 230828Z 13003KT 19/12 A3032 RMK A01 T01930123  RH  064%=      5-min Rain = 0
KFR1 230829Z 13003KT 19/12 A3032 RMK A01 T01930122  RH  063%=      5-min Rain = 0
KFR1 230830Z 12004KT 19/12 A3032 RMK A01 T01940122  RH  063%=      5-min Rain = 0
KFR1 230831Z 12004KT 20/12 A3032 RMK A01 T01950123  RH  063%=      5-min Rain = 0
KFR1 230832Z 12003KT 20/12 A3032 RMK A01 T01950122  RH  063%=      5-min Rain = 0
KFR1 230833Z 13003KT 20/12 A3031 RMK A01 T01950122  RH  063%=      5-min Rain = 0
KFR1 230834Z 14003KT 20/12 A3031 RMK A01 T01950122  RH  063%=      5-min Rain = 0
KFR1 230835Z 15002KT 20/12 A3031 RMK A01 T01950122  RH  063%=      5-min Rain = 0
KFR1 230836Z 17002KT 20/12 A3031 RMK A01 T01950123  RH  063%=      5-min Rain = 0
KFR1 230837Z 19003KT 19/12 A3031 RMK A01 T01930122  RH  064%=      5-min Rain = 0
KFR1 230838Z 21002KT 19/12 A3032 RMK A01 T01910123  RH  064%=      5-min Rain = 0
KFR1 230839Z 21002KT 19/12 A3032 RMK A01 T01900123  RH  065%=      5-min Rain = 0
KFR1 230840Z 21002KT 19/12 A3032 RMK A01 T01890123  RH  066%=      5-min Rain = 0
KFR1 230841Z 20002KT 19/12 A3032 RMK A01 T01880123  RH  066%=      5-min Rain = 0
KFR1 230842Z 20001KT 19/12 A3032 RMK A01 T01870123  RH  066%=      5-min Rain = 0
KFR1 230843Z 20001KT 19/12 A3032 RMK A01 T01870123  RH  066%=      5-min Rain = 0
KFR1 230844Z 00000KT 19/12 A3032 RMK A01 T01870123  RH  066%=      5-min Rain = 0
KFR1 230845Z 00000KT 19/12 A3032 RMK A01 T01870123  RH  066%=      5-min Rain = 0
KFR1 230846Z 00000KT 19/12 A3032 RMK A01 T01860122  RH  066%=      5-min Rain = 0
KFR1 230847Z 00000KT 19/12 A3032 RMK A01 T01870123  RH  066%=      5-min Rain = 0
KFR1 230848Z 00000KT 19/12 A3032 RMK A01 T01870123  RH  066%=      5-min Rain = 0
KFR1 230849Z 06000KT 19/12 A3032 RMK A01 T01870123  RH  066%=      5-min Rain = 0
KFR1 230850Z 04001KT 19/12 A3032 RMK A01 T01880122  RH  066%=      5-min Rain = 0
KFR1 230851Z 04001KT 19/12 A3032 RMK A01 T01880122  RH  065%=      5-min Rain = 0
KFR1 230852Z 03001KT 19/12 A3032 RMK A01 T01890122  RH  065%=      5-min Rain = 0
KFR1 230853Z 04001KT 19/12 A3032 RMK A01 T01890122  RH  065%=      5-min Rain = 0
KFR1 230854Z 04001KT 19/12 A3032 RMK A01 T01890122  RH  065%=      5-min Rain = 0
KFR1 230855Z 04001KT 19/12 A3032 RMK A01 T01900123  RH  065%=      5-min Rain = 0
KFR1 230856Z 03001KT 19/12 A3032 RMK A01 T01890122  RH  065%=      5-min Rain = 0
KFR1 230857Z 03002KT 19/12 A3032 RMK A01 T01900123  RH  065%=      5-min Rain = 0
KFR1 230858Z 03003KT 19/12 A3032 RMK A01 T01890122  RH  065%=      5-min Rain = 0
KFR1 230859Z 03003KT 19/12 A3031 RMK A01 T01890123  RH  065%=      5-min Rain = 0
KFR1 230900Z 04004KT 19/12 A3031 RMK A01 T01880123  RH  066%=      5-min Rain = 0
KFR1 230901Z 05004KT 19/12 A3031 RMK A01 T01870123  RH  066%=      5-min Rain = 0
KFR1 230902Z 05005KT 19/12 A3032 RMK A01 T01850123  RH  067%=      5-min Rain = 0
KFR1 230903Z 05005KT 19/12 A3032 RMK A01 T01850123  RH  067%=      5-min Rain = 0
KFR1 230904Z 05005KT 18/12 A3032 RMK A01 T01840123  RH  067%=      5-min Rain = 0
KFR1 230905Z 06004KT 19/12 A3032 RMK A01 T01850123  RH  067%=      5-min Rain = 0
KFR1 230906Z 06004KT 19/12 A3032 RMK A01 T01850123  RH  067%=      5-min Rain = 0
KFR1 230907Z 06004KT 19/12 A3032 RMK A01 T01860123  RH  067%=      5-min Rain = 0
KFR1 230908Z 06004KT 19/12 A3032 RMK A01 T01850123  RH  067%=      5-min Rain = 0
KFR1 230909Z 06004KT 19/12 A3032 RMK A01 T01850123  RH  067%=      5-min Rain = 0
KFR1 230910Z 06004KT 18/12 A3032 RMK A01 T01840123  RH  067%=      5-min Rain = 0
KFR1 230911Z 07004KT 18/12 A3032 RMK A01 T01840123  RH  067%=      5-min Rain = 0
KFR1 230912Z 08004KT 18/12 A3032 RMK A01 T01840123  RH  067%=      5-min Rain = 0
KFR1 230913Z 08004KT 18/12 A3032 RMK A01 T01840123  RH  067%=      5-min Rain = 0
KFR1 230914Z 09004KT 18/12 A3032 RMK A01 T01830122  RH  067%=      5-min Rain = 0
KFR1 230915Z 09005KT 18/12 A3032 RMK A01 T01830122  RH  068%=      5-min Rain = 0
KFR1 230916Z 10005KT 18/12 A3032 RMK A01 T01820121  RH  068%=      5-min Rain = 0
KFR1 230917Z 11005KT 18/12 A3032 RMK A01 T01830122  RH  068%=      5-min Rain = 0
KFR1 230918Z 11005KT 19/12 A3032 RMK A01 T01850122  RH  067%=      5-min Rain = 0
KFR1 230919Z 10005KT 19/12 A3032 RMK A01 T01860122  RH  066%=      5-min Rain = 0
KFR1 230920Z 09005KT 19/12 A3032 RMK A01 T01850122  RH  067%=      5-min Rain = 0
KFR1 230921Z 09004KT 18/12 A3032 RMK A01 T01840122  RH  067%=      5-min Rain = 0
KFR1 230922Z 09004KT 18/12 A3032 RMK A01 T01840122  RH  067%=      5-min Rain = 0
KFR1 230923Z 09004KT 18/12 A3032 RMK A01 T01840122  RH  067%=      5-min Rain = 0
KFR1 230924Z 09005KT 18/12 A3032 RMK A01 T01840121  RH  067%=      5-min Rain = 0
KFR1 230925Z 09004KT 19/12 A3032 RMK A01 T01850122  RH  067%=      5-min Rain = 0
KFR1 230926Z 08004KT 18/12 A3032 RMK A01 T01840122  RH  067%=      5-min Rain = 0
KFR1 230927Z 07004KT 18/12 A3032 RMK A01 T01830121  RH  067%=      5-min Rain = 0
KFR1 230928Z 07004KT 18/12 A3032 RMK A01 T01830122  RH  067%=      5-min Rain = 0
KFR1 230929Z 07004KT 18/12 A3032 RMK A01 T01830122  RH  067%=      5-min Rain = 0
KFR1 230930Z 07005KT 18/12 A3032 RMK A01 T01830122  RH  067%=      5-min Rain = 0
KFR1 230931Z 08005KT 18/12 A3032 RMK A01 T01830122  RH  067%=      5-min Rain = 0
KFR1 230932Z 08005KT 18/12 A3032 RMK A01 T01830122  RH  067%=      5-min Rain = 0
KFR1 230933Z 08005KT 18/12 A3032 RMK A01 T01820121  RH  068%=      5-min Rain = 0
KFR1 230934Z 08005KT 18/12 A3032 RMK A01 T01810121  RH  068%=      5-min Rain = 0
KFR1 230935Z 08004KT 18/12 A3032 RMK A01 T01800121  RH  069%=      5-min Rain = 0
KFR1 230936Z 08004KT 18/12 A3032 RMK A01 T01800121  RH  069%=      5-min Rain = 0
KFR1 230937Z 08004KT 18/12 A3032 RMK A01 T01800121  RH  069%=      5-min Rain = 0
KFR1 230938Z 07004KT 18/12 A3032 RMK A01 T01800121  RH  069%=      5-min Rain = 0
KFR1 230939Z 07004KT 18/12 A3032 RMK A01 T01800122  RH  069%=      5-min Rain = 0
KFR1 230940Z 07004KT 18/12 A3032 RMK A01 T01800122  RH  069%=      5-min Rain = 0
KFR1 230941Z 08004KT 18/12 A3032 RMK A01 T01800122  RH  069%=      5-min Rain = 0
KFR1 230942Z 08004KT 18/12 A3032 RMK A01 T01800122  RH  069%=      5-min Rain = 0
KFR1 230943Z 08003KT 18/12 A3032 RMK A01 T01800122  RH  069%=      5-min Rain = 0
KFR1 230944Z 08003KT 18/12 A3032 RMK A01 T01800122  RH  069%=      5-min Rain = 0
KFR1 230945Z 08003KT 18/12 A3032 RMK A01 T01800122  RH  069%=      5-min Rain = 0
KFR1 230946Z 08003KT 18/12 A3032 RMK A01 T01800122  RH  069%=      5-min Rain = 0
KFR1 230947Z 08003KT 18/12 A3032 RMK A01 T01810122  RH  068%=      5-min Rain = 0
KFR1 230948Z 06003KT 18/12 A3032 RMK A01 T01810122  RH  068%=      5-min Rain = 0
KFR1 230949Z 06003KT 18/12 A3032 RMK A01 T01810122  RH  069%=      5-min Rain = 0
KFR1 230950Z 06004KT 18/12 A3032 RMK A01 T01820123  RH  069%=      5-min Rain = 0
KFR1 230951Z 06003KT 18/12 A3032 RMK A01 T01820123  RH  068%=      5-min Rain = 0
KFR1 230952Z 06003KT 18/12 A3032 RMK A01 T01820123  RH  068%=      5-min Rain = 0
KFR1 230953Z 07003KT 18/12 A3032 RMK A01 T01830124  RH  068%=      5-min Rain = 0
KFR1 230954Z 06003KT 18/12 A3032 RMK A01 T01840124  RH  068%=      5-min Rain = 0
KFR1 230955Z 06003KT 18/12 A3032 RMK A01 T01830124  RH  068%=      5-min Rain = 0
KFR1 230956Z 06003KT 18/13 A3032 RMK A01 T01830125  RH  069%=      5-min Rain = 0
KFR1 230957Z 06003KT 18/13 A3032 RMK A01 T01840126  RH  069%=      5-min Rain = 0
KFR1 230958Z 06004KT 19/13 A3032 RMK A01 T01850127  RH  069%=      5-min Rain = 0
KFR1 230959Z 06004KT 19/13 A3032 RMK A01 T01850127  RH  069%=      5-min Rain = 0
KFR1 231000Z 06004KT 19/13 A3032 RMK A01 T01860128  RH  069%=      5-min Rain = 0
KFR1 231001Z 06005KT 19/13 A3032 RMK A01 T01860127  RH  069%=      5-min Rain = 0
KFR1 231002Z 06004KT 19/13 A3032 RMK A01 T01860127  RH  069%=      5-min Rain = 0
KFR1 231003Z 06004KT 19/13 A3032 RMK A01 T01860127  RH  068%=      5-min Rain = 0
KFR1 231004Z 06004KT 19/13 A3032 RMK A01 T01850126  RH  069%=      5-min Rain = 0
KFR1 231005Z 06005KT 19/13 A3032 RMK A01 T01850127  RH  069%=      5-min Rain = 0
KFR1 231006Z 06005KT 18/13 A3032 RMK A01 T01840127  RH  069%=      5-min Rain = 0
KFR1 231007Z 07005KT 18/13 A3032 RMK A01 T01840127  RH  069%=      5-min Rain = 0
KFR1 231008Z 06004KT 18/13 A3032 RMK A01 T01840127  RH  069%=      5-min Rain = 0
KFR1 231009Z 07004KT 18/13 A3032 RMK A01 T01840127  RH  069%=      5-min Rain = 0
KFR1 231010Z 07004KT 18/13 A3032 RMK A01 T01840127  RH  069%=      5-min Rain = 0
KFR1 231011Z 07004KT 18/13 A3032 RMK A01 T01840127  RH  069%=      5-min Rain = 0
KFR1 231012Z 07004KT 18/13 A3032 RMK A01 T01840127  RH  069%=      5-min Rain = 0
KFR1 231013Z 07005KT 18/13 A3032 RMK A01 T01830127  RH  070%=      5-min Rain = 0
KFR1 231014Z 06004KT 18/13 A3033 RMK A01 T01830128  RH  070%=      5-min Rain = 0
KFR1 231015Z 07004KT 18/13 A3033 RMK A01 T01830128  RH  070%=      5-min Rain = 0
KFR1 231016Z 07005KT 18/13 A3033 RMK A01 T01840127  RH  070%=      5-min Rain = 0
KFR1 231017Z 07005KT 18/13 A3033 RMK A01 T01830128  RH  070%=      5-min Rain = 0
KFR1 231018Z 07004KT 18/13 A3033 RMK A01 T01840127  RH  070%=      5-min Rain = 0
KFR1 231019Z 07004KT 18/13 A3033 RMK A01 T01840127  RH  070%=      5-min Rain = 0
KFR1 231020Z 08004KT 18/13 A3033 RMK A01 T01830127  RH  070%=      5-min Rain = 0
KFR1 231021Z 07004KT 18/13 A3033 RMK A01 T01810126  RH  070%=      5-min Rain = 0
KFR1 231022Z 08004KT 18/13 A3033 RMK A01 T01800126  RH  071%=      5-min Rain = 0
KFR1 231023Z 08003KT 18/13 A3033 RMK A01 T01800127  RH  071%=      5-min Rain = 0
KFR1 231024Z 08004KT 18/13 A3033 RMK A01 T01790127  RH  071%=      5-min Rain = 0
KFR1 231025Z 08003KT 18/13 A3033 RMK A01 T01790127  RH  071%=      5-min Rain = 0
KFR1 231026Z 08004KT 18/13 A3033 RMK A01 T01790127  RH  072%=      5-min Rain = 0
KFR1 231027Z 08004KT 18/13 A3033 RMK A01 T01780127  RH  072%=      5-min Rain = 0
KFR1 231028Z 08004KT 18/13 A3033 RMK A01 T01770127  RH  073%=      5-min Rain = 0
KFR1 231029Z 08004KT 18/13 A3033 RMK A01 T01770127  RH  073%=      5-min Rain = 0
KFR1 231030Z 08005KT 18/13 A3033 RMK A01 T01770128  RH  073%=      5-min Rain = 0
KFR1 231031Z 08005KT 18/13 A3033 RMK A01 T01770127  RH  073%=      5-min Rain = 0
KFR1 231032Z 08005KT 18/13 A3033 RMK A01 T01770128  RH  073%=      5-min Rain = 0
KFR1 231033Z 08005KT 18/13 A3033 RMK A01 T01770128  RH  073%=      5-min Rain = 0
KFR1 231034Z 08005KT 18/13 A3033 RMK A01 T01770128  RH  073%=      5-min Rain = 0
KFR1 231035Z 08005KT 18/13 A3033 RMK A01 T01770128  RH  073%=      5-min Rain = 0
KFR1 231036Z 08005KT 18/13 A3033 RMK A01 T01780128  RH  073%=      5-min Rain = 0
KFR1 231037Z 08005KT 18/13 A3033 RMK A01 T01780128  RH  073%=      5-min Rain = 0
KFR1 231038Z 08005KT 18/13 A3033 RMK A01 T01780128  RH  073%=      5-min Rain = 0
KFR1 231039Z 08005KT 18/13 A3033 RMK A01 T01780128  RH  073%=      5-min Rain = 0
KFR1 231040Z 08005KT 18/13 A3033 RMK A01 T01780128  RH  073%=      5-min Rain = 0
KFR1 231041Z 08005KT 18/13 A3033 RMK A01 T01770128  RH  073%=      5-min Rain = 0
KFR1 231042Z 08005KT 18/13 A3033 RMK A01 T01780128  RH  073%=      5-min Rain = 0
KFR1 231043Z 08005KT 18/13 A3033 RMK A01 T01780128  RH  073%=      5-min Rain = 0
KFR1 231044Z 08005KT 18/13 A3033 RMK A01 T01780129  RH  073%=      5-min Rain = 0
KFR1 231045Z 08005KT 18/13 A3033 RMK A01 T01780129  RH  073%=      5-min Rain = 0
KFR1 231046Z 08005KT 18/13 A3033 RMK A01 T01770129  RH  073%=      5-min Rain = 0
KFR1 231047Z 08005KT 18/13 A3033 RMK A01 T01780129  RH  073%=      5-min Rain = 0
KFR1 231048Z 08005KT 18/13 A3033 RMK A01 T01780129  RH  073%=      5-min Rain = 0
KFR1 231049Z 08005KT 18/13 A3033 RMK A01 T01770129  RH  073%=      5-min Rain = 0
KFR1 231050Z 09005KT 18/13 A3033 RMK A01 T01770128  RH  073%=      5-min Rain = 0
KFR1 231051Z 09005KT 18/13 A3033 RMK A01 T01780128  RH  073%=      5-min Rain = 0
KFR1 231052Z 09005KT 18/13 A3033 RMK A01 T01790129  RH  072%=      5-min Rain = 0
KFR1 231053Z 09005KT 18/13 A3033 RMK A01 T01800129  RH  072%=      5-min Rain = 0
KFR1 231054Z 09005KT 18/13 A3033 RMK A01 T01820129  RH  071%=      5-min Rain = 0
KFR1 231055Z 09004KT 18/13 A3033 RMK A01 T01820129  RH  071%=      5-min Rain = 0
KFR1 231056Z 08004KT 18/13 A3033 RMK A01 T01810128  RH  071%=      5-min Rain = 0
KFR1 231057Z 08005KT 18/13 A3033 RMK A01 T01810128  RH  071%=      5-min Rain = 0
KFR1 231058Z 08005KT 18/13 A3033 RMK A01 T01820128  RH  071%=      5-min Rain = 0
KFR1 231059Z 08005KT 18/13 A3033 RMK A01 T01820129  RH  071%=      5-min Rain = 0
KFR1 231100Z 08005KT 18/13 A3033 RMK A01 T01820128  RH  071%=      5-min Rain = 0
KFR1 231101Z 08006KT 18/13 A3033 RMK A01 T01810129  RH  071%=      5-min Rain = 0
KFR1 231102Z 08006KT 18/13 A3033 RMK A01 T01800128  RH  072%=      5-min Rain = 0
KFR1 231103Z 08005KT 18/13 A3033 RMK A01 T01790128  RH  072%=      5-min Rain = 0
KFR1 231104Z 09005KT 18/13 A3033 RMK A01 T01780128  RH  073%=      5-min Rain = 0
KFR1 231105Z 09005KT 18/13 A3033 RMK A01 T01770128  RH  073%=      5-min Rain = 0
KFR1 231106Z 09005KT 18/13 A3033 RMK A01 T01770128  RH  073%=      5-min Rain = 0
KFR1 231107Z 09005KT 18/13 A3033 RMK A01 T01770129  RH  073%=      5-min Rain = 0
KFR1 231108Z 09004KT 18/13 A3033 RMK A01 T01770129  RH  073%=      5-min Rain = 0
KFR1 231109Z 09004KT 18/13 A3033 RMK A01 T01770129  RH  073%=      5-min Rain = 0
KFR1 231110Z 09004KT 18/13 A3033 RMK A01 T01770129  RH  073%=      5-min Rain = 0
KFR1 231111Z 09004KT 18/13 A3033 RMK A01 T01770129  RH  073%=      5-min Rain = 0
KFR1 231112Z 09004KT 18/13 A3033 RMK A01 T01760128  RH  074%=      5-min Rain = 0
KFR1 231113Z 08003KT 18/13 A3033 RMK A01 T01760129  RH  074%=      5-min Rain = 0
KFR1 231114Z 08004KT 18/13 A3033 RMK A01 T01760129  RH  074%=      5-min Rain = 0
KFR1 231115Z 08004KT 18/13 A3033 RMK A01 T01760129  RH  074%=      5-min Rain = 0
KFR1 231116Z 08004KT 18/13 A3033 RMK A01 T01760129  RH  074%=      5-min Rain = 0
KFR1 231117Z 07003KT 18/13 A3033 RMK A01 T01770129  RH  073%=      5-min Rain = 0
KFR1 231118Z 07003KT 18/13 A3033 RMK A01 T01770129  RH  073%=      5-min Rain = 0
KFR1 231119Z 08003KT 18/13 A3033 RMK A01 T01760129  RH  074%=      5-min Rain = 0
KFR1 231120Z 07003KT 18/13 A3033 RMK A01 T01760129  RH  074%=      5-min Rain = 0
KFR1 231121Z 08003KT 18/13 A3034 RMK A01 T01760129  RH  074%=      5-min Rain = 0
KFR1 231122Z 08003KT 18/13 A3034 RMK A01 T01750129  RH  074%=      5-min Rain = 0
KFR1 231123Z 09003KT 17/13 A3034 RMK A01 T01740128  RH  074%=      5-min Rain = 0
KFR1 231124Z 08004KT 17/13 A3034 RMK A01 T01740129  RH  074%=      5-min Rain = 0
KFR1 231125Z 08003KT 17/13 A3034 RMK A01 T01740129  RH  074%=      5-min Rain = 0
KFR1 231126Z 08004KT 17/13 A3034 RMK A01 T01740128  RH  074%=      5-min Rain = 0
KFR1 231127Z 08004KT 17/13 A3034 RMK A01 T01740129  RH  075%=      5-min Rain = 0
KFR1 231128Z 08004KT 17/13 A3034 RMK A01 T01740129  RH  075%=      5-min Rain = 0
KFR1 231129Z 07004KT 17/13 A3034 RMK A01 T01740129  RH  075%=      5-min Rain = 0
KFR1 231130Z 07004KT 17/13 A3034 RMK A01 T01740129  RH  075%=      5-min Rain = 0
KFR1 231131Z 07004KT 17/13 A3034 RMK A01 T01740129  RH  075%=      5-min Rain = 0
KFR1 231132Z 07004KT 18/13 A3034 RMK A01 T01750129  RH  075%=      5-min Rain = 0
KFR1 231133Z 07004KT 17/13 A3034 RMK A01 T01740129  RH  074%=      5-min Rain = 0
KFR1 231134Z 07005KT 17/13 A3034 RMK A01 T01740128  RH  074%=      5-min Rain = 0
KFR1 231135Z 07004KT 17/13 A3034 RMK A01 T01740129  RH  075%=      5-min Rain = 0
KFR1 231136Z 07004KT 17/13 A3034 RMK A01 T01740128  RH  075%=      5-min Rain = 0
KFR1 231137Z 08004KT 17/13 A3034 RMK A01 T01740129  RH  075%=      5-min Rain = 0
KFR1 231138Z 08004KT 17/13 A3034 RMK A01 T01730128  RH  075%=      5-min Rain = 0
KFR1 231139Z 08004KT 17/13 A3034 RMK A01 T01730129  RH  075%=      5-min Rain = 0
KFR1 231140Z 09004KT 17/13 A3034 RMK A01 T01730128  RH  075%=      5-min Rain = 0
KFR1 231141Z 09003KT 17/13 A3034 RMK A01 T01730128  RH  075%=      5-min Rain = 0
KFR1 231142Z 09003KT 17/13 A3034 RMK A01 T01720128  RH  075%=      5-min Rain = 0
KFR1 231143Z 10003KT 17/13 A3034 RMK A01 T01710128  RH  075%=      5-min Rain = 0
KFR1 231144Z 10003KT 17/13 A3034 RMK A01 T01710128  RH  076%=      5-min Rain = 0
KFR1 231145Z 10004KT 17/13 A3034 RMK A01 T01700127  RH  076%=      5-min Rain = 0
KFR1 231146Z 09004KT 17/13 A3034 RMK A01 T01700127  RH  076%=      5-min Rain = 0
KFR1 231147Z 10004KT 17/13 A3034 RMK A01 T01700127  RH  076%=      5-min Rain = 0
KFR1 231148Z 09004KT 17/13 A3034 RMK A01 T01700127  RH  076%=      5-min Rain = 0
KFR1 231149Z 09004KT 17/13 A3034 RMK A01 T01710127  RH  075%=      5-min Rain = 0
KFR1 231150Z 09004KT 17/13 A3034 RMK A01 T01710127  RH  075%=      5-min Rain = 0
KFR1 231151Z 07003KT 17/13 A3034 RMK A01 T01710127  RH  075%=      5-min Rain = 0
KFR1 231152Z 06004KT 17/13 A3034 RMK A01 T01710127  RH  075%=      5-min Rain = 0
KFR1 231153Z 05003KT 17/13 A3034 RMK A01 T01710128  RH  076%=      5-min Rain = 0
KFR1 231154Z 05003KT 17/13 A3034 RMK A01 T01700127  RH  076%=      5-min Rain = 0
KFR1 231155Z 05003KT 17/13 A3034 RMK A01 T01690127  RH  076%=      5-min Rain = 0
KFR1 231156Z 04003KT 17/13 A3034 RMK A01 T01690127  RH  077%=      5-min Rain = 0
KFR1 231157Z 04003KT 17/13 A3034 RMK A01 T01690128  RH  077%=      5-min Rain = 0
KFR1 231158Z 04002KT 17/13 A3034 RMK A01 T01680128  RH  077%=      5-min Rain = 0
KFR1 231159Z 04003KT 17/13 A3034 RMK A01 T01670127  RH  077%=      5-min Rain = 0
KFR1 231200Z 05003KT 17/13 A3034 RMK A01 T01670127  RH  077%=      5-min Rain = 0
KFR1 231201Z 04002KT 17/13 A3034 RMK A01 T01670128  RH  078%=      5-min Rain = 0
KFR1 231202Z 05002KT 17/13 A3034 RMK A01 T01670127  RH  077%=      5-min Rain = 0
KFR1 231203Z 03002KT 17/13 A3034 RMK A01 T01670128  RH  078%=      5-min Rain = 0
KFR1 231204Z 03002KT 17/13 A3034 RMK A01 T01670128  RH  078%=      5-min Rain = 0
KFR1 231205Z 02002KT 17/13 A3034 RMK A01 T01680129  RH  077%=      5-min Rain = 0
KFR1 231206Z 02002KT 17/13 A3035 RMK A01 T01680129  RH  077%=      5-min Rain = 0
KFR1 231207Z 02002KT 17/13 A3035 RMK A01 T01690128  RH  077%=      5-min Rain = 0
KFR1 231208Z 02003KT 17/13 A3035 RMK A01 T01690128  RH  077%=      5-min Rain = 0
KFR1 231209Z 02003KT 17/13 A3035 RMK A01 T01700129  RH  077%=      5-min Rain = 0
KFR1 231210Z 02003KT 17/13 A3035 RMK A01 T01700129  RH  077%=      5-min Rain = 0
KFR1 231211Z 01003KT 17/13 A3035 RMK A01 T01700129  RH  077%=      5-min Rain = 0
KFR1 231212Z 02003KT 17/13 A3035 RMK A01 T01700129  RH  077%=      5-min Rain = 0
KFR1 231213Z 02003KT 17/13 A3035 RMK A01 T01700128  RH  077%=      5-min Rain = 0
KFR1 231214Z 02003KT 17/13 A3035 RMK A01 T01700128  RH  076%=      5-min Rain = 0
KFR1 231215Z 02004KT 17/13 A3035 RMK A01 T01700129  RH  077%=      5-min Rain = 0
KFR1 231216Z 02003KT 17/13 A3035 RMK A01 T01700128  RH  076%=      5-min Rain = 0
KFR1 231217Z 04002KT 17/13 A3035 RMK A01 T01710128  RH  076%=      5-min Rain = 0
KFR1 231218Z 03003KT 17/13 A3035 RMK A01 T01710129  RH  076%=      5-min Rain = 0
KFR1 231219Z 03003KT 17/13 A3035 RMK A01 T01720129  RH  076%=      5-min Rain = 0
KFR1 231220Z 04003KT 17/13 A3035 RMK A01 T01720129  RH  076%=      5-min Rain = 0
KFR1 231221Z 04003KT 17/13 A3035 RMK A01 T01720129  RH  076%=      5-min Rain = 0
KFR1 231222Z 04002KT 17/13 A3035 RMK A01 T01720129  RH  076%=      5-min Rain = 0
KFR1 231223Z 05003KT 17/13 A3035 RMK A01 T01730129  RH  075%=      5-min Rain = 0
KFR1 231224Z 05003KT 17/13 A3035 RMK A01 T01730129  RH  075%=      5-min Rain = 0
KFR1 231225Z 04003KT 17/13 A3035 RMK A01 T01730128  RH  075%=      5-min Rain = 0
KFR1 231226Z 04003KT 17/13 A3035 RMK A01 T01730128  RH  075%=      5-min Rain = 0
KFR1 231227Z 04003KT 17/13 A3035 RMK A01 T01730129  RH  075%=      5-min Rain = 0
KFR1 231228Z 04004KT 17/13 A3035 RMK A01 T01730129  RH  075%=      5-min Rain = 0
KFR1 231229Z 03003KT 17/13 A3035 RMK A01 T01740129  RH  075%=      5-min Rain = 0
KFR1 231230Z 04003KT 17/13 A3035 RMK A01 T01740129  RH  075%=      5-min Rain = 0
KFR1 231231Z 04003KT 17/13 A3035 RMK A01 T01740129  RH  075%=      5-min Rain = 0
KFR1 231232Z 04003KT 17/13 A3035 RMK A01 T01740129  RH  075%=      5-min Rain = 0
KFR1 231233Z 05004KT 18/13 A3035 RMK A01 T01750129  RH  074%=      5-min Rain = 0
KFR1 231234Z 05004KT 18/13 A3035 RMK A01 T01750129  RH  074%=      5-min Rain = 0
KFR1 231235Z 05004KT 18/13 A3035 RMK A01 T01750129  RH  074%=      5-min Rain = 0
KFR1 231236Z 05004KT 18/13 A3035 RMK A01 T01750128  RH  074%=      5-min Rain = 0
KFR1 231237Z 05004KT 18/13 A3035 RMK A01 T01750129  RH  074%=      5-min Rain = 0
KFR1 231238Z 05004KT 18/13 A3035 RMK A01 T01750128  RH  074%=      5-min Rain = 0
KFR1 231239Z 05004KT 18/13 A3035 RMK A01 T01750128  RH  074%=      5-min Rain = 0
KFR1 231240Z 05004KT 18/13 A3035 RMK A01 T01750128  RH  074%=      5-min Rain = 0
KFR1 231241Z 05004KT 18/13 A3035 RMK A01 T01750129  RH  074%=      5-min Rain = 0
KFR1 231242Z 05004KT 18/13 A3035 RMK A01 T01750129  RH  074%=      5-min Rain = 0
KFR1 231243Z 06004KT 18/13 A3035 RMK A01 T01760129  RH  074%=      5-min Rain = 0
KFR1 231244Z 05003KT 18/13 A3035 RMK A01 T01770129  RH  074%=      5-min Rain = 0
KFR1 231245Z 05003KT 18/13 A3035 RMK A01 T01770129  RH  073%=      5-min Rain = 0
KFR1 231246Z 05003KT 18/13 A3036 RMK A01 T01780129  RH  073%=      5-min Rain = 0
KFR1 231247Z 05003KT 18/13 A3036 RMK A01 T01770129  RH  073%=      5-min Rain = 0
KFR1 231248Z 05003KT 18/13 A3036 RMK A01 T01780129  RH  073%=      5-min Rain = 0
KFR1 231249Z 05004KT 18/13 A3036 RMK A01 T01790130  RH  073%=      5-min Rain = 0
KFR1 231250Z 05004KT 18/13 A3036 RMK A01 T01790129  RH  073%=      5-min Rain = 0
KFR1 231251Z 04003KT 18/13 A3036 RMK A01 T01790129  RH  073%=      5-min Rain = 0
KFR1 231252Z 05003KT 18/13 A3036 RMK A01 T01790130  RH  073%=      5-min Rain = 0
KFR1 231253Z 05003KT 18/13 A3036 RMK A01 T01800129  RH  072%=      5-min Rain = 0
KFR1 231254Z 05002KT 18/13 A3036 RMK A01 T01800129  RH  072%=      5-min Rain = 0
KFR1 231255Z 06002KT 18/13 A3036 RMK A01 T01800129  RH  072%=      5-min Rain = 0
KFR1 231256Z 06003KT 18/13 A3036 RMK A01 T01800129  RH  072%=      5-min Rain = 0
KFR1 231257Z 06004KT 18/13 A3036 RMK A01 T01810129  RH  072%=      5-min Rain = 0
KFR1 231258Z 07004KT 18/13 A3036 RMK A01 T01810129  RH  072%=      5-min Rain = 0
KFR1 231259Z 07004KT 18/13 A3036 RMK A01 T01820129  RH  071%=      5-min Rain = 0
KFR1 231300Z 07004KT 18/13 A3036 RMK A01 T01820130  RH  072%=      5-min Rain = 0
KFR1 231301Z 07003KT 18/13 A3036 RMK A01 T01820130  RH  072%=      5-min Rain = 0
KFR1 231302Z 08004KT 18/13 A3036 RMK A01 T01830131  RH  071%=      5-min Rain = 0
KFR1 231303Z 08004KT 18/13 A3036 RMK A01 T01840130  RH  071%=      5-min Rain = 0
KFR1 231304Z 08004KT 18/13 A3036 RMK A01 T01840131  RH  071%=      5-min Rain = 0
KFR1 231305Z 08004KT 19/13 A3036 RMK A01 T01850131  RH  071%=      5-min Rain = 0
KFR1 231306Z 08004KT 19/13 A3036 RMK A01 T01860132  RH  070%=      5-min Rain = 0
KFR1 231307Z 09004KT 19/13 A3036 RMK A01 T01870132  RH  070%=      5-min Rain = 0
KFR1 231308Z 09004KT 19/13 A3036 RMK A01 T01880133  RH  070%=      5-min Rain = 0
KFR1 231309Z 09004KT 19/13 A3036 RMK A01 T01890132  RH  070%=      5-min Rain = 0
KFR1 231310Z 10003KT 19/13 A3036 RMK A01 T01890133  RH  069%=      5-min Rain = 0
KFR1 231311Z 10004KT 19/13 A3036 RMK A01 T01900133  RH  069%=      5-min Rain = 0
KFR1 231312Z 09003KT 19/13 A3036 RMK A01 T01920134  RH  069%=      5-min Rain = 0
KFR1 231313Z 09004KT 19/13 A3036 RMK A01 T01930133  RH  068%=      5-min Rain = 0
KFR1 231314Z 09004KT 19/13 A3036 RMK A01 T01940133  RH  068%=      5-min Rain = 0
KFR1 231315Z 08003KT 20/13 A3036 RMK A01 T01950133  RH  068%=      5-min Rain = 0
KFR1 231316Z 08003KT 20/13 A3036 RMK A01 T01950133  RH  067%=      5-min Rain = 0
KFR1 231317Z 08003KT 20/13 A3036 RMK A01 T01950133  RH  067%=      5-min Rain = 0
KFR1 231318Z 10004KT 20/13 A3036 RMK A01 T01960133  RH  067%=      5-min Rain = 0
KFR1 231319Z 09005KT 20/13 A3036 RMK A01 T01960132  RH  066%=      5-min Rain = 0
KFR1 231320Z 10005KT 20/13 A3036 RMK A01 T01950131  RH  066%=      5-min Rain = 0
KFR1 231321Z 09005KT 20/13 A3036 RMK A01 T01950132  RH  067%=      5-min Rain = 0
KFR1 231322Z 10007KT 20/13 A3037 RMK A01 T01950132  RH  067%=      5-min Rain = 0
KFR1 231323Z 11006KT 20/13 A3037 RMK A01 T01960132  RH  066%=      5-min Rain = 0
KFR1 231324Z 09006KT 20/13 A3037 RMK A01 T01960133  RH  067%=      5-min Rain = 0
KFR1 231325Z 11006KT 20/13 A3037 RMK A01 T01970132  RH  066%=      5-min Rain = 0
KFR1 231326Z 10007KT 20/13 A3037 RMK A01 T01970131  RH  066%=      5-min Rain = 0
KFR1 231327Z 10008KT 20/13 A3037 RMK A01 T01970132  RH  066%=      5-min Rain = 0
KFR1 231328Z 10006KT 20/13 A3037 RMK A01 T01970132  RH  066%=      5-min Rain = 0
KFR1 231329Z 11006KT 20/13 A3037 RMK A01 T01970131  RH  066%=      5-min Rain = 0
KFR1 231330Z 10006KT 20/13 A3036 RMK A01 T01970132  RH  066%=      5-min Rain = 0
KFR1 231331Z 11005KT 20/13 A3036 RMK A01 T01970133  RH  066%=      5-min Rain = 0
KFR1 231332Z 11006KT 20/13 A3036 RMK A01 T01990133  RH  066%=      5-min Rain = 0
KFR1 231333Z 12004KT 20/13 A3036 RMK A01 T01990133  RH  066%=      5-min Rain = 0
KFR1 231334Z 12005KT 20/14 A3036 RMK A01 T02000135  RH  066%=      5-min Rain = 0
KFR1 231335Z 11007KT 20/13 A3036 RMK A01 T02010134  RH  065%=      5-min Rain = 0
KFR1 231336Z 11007KT 20/13 A3036 RMK A01 T02000133  RH  065%=      5-min Rain = 0
KFR1 231337Z 12005KT 20/13 A3036 RMK A01 T01990134  RH  066%=      5-min Rain = 0
KFR1 231338Z 13006KT 20/13 A3036 RMK A01 T02010134  RH  065%=      5-min Rain = 0
KFR1 231339Z 14005KT 20/13 A3036 RMK A01 T02010133  RH  065%=      5-min Rain = 0
KFR1 231340Z 11005KT 20/14 A3036 RMK A01 T02020135  RH  065%=      5-min Rain = 0
KFR1 231341Z 12006KT 20/14 A3036 RMK A01 T02030135  RH  065%=      5-min Rain = 0
KFR1 231342Z 11006KT 20/14 A3036 RMK A01 T02040135  RH  064%=      5-min Rain = 0
KFR1 231343Z 11006KT 21/14 A3036 RMK A01 T02050137  RH  065%=      5-min Rain = 0
KFR1 231344Z 12006KT 21/14 A3036 RMK A01 T02060136  RH  064%=      5-min Rain = 0
KFR1 231345Z 10008KT 21/14 A3036 RMK A01 T02070137  RH  064%=      5-min Rain = 0
KFR1 231346Z 11008KT 21/14 A3036 RMK A01 T02070136  RH  064%=      5-min Rain = 0
KFR1 231347Z 10009KT 21/13 A3036 RMK A01 T02050134  RH  064%=      5-min Rain = 0
KFR1 231348Z 09008KT 20/14 A3036 RMK A01 T02040135  RH  065%=      5-min Rain = 0
KFR1 231349Z 10007KT 20/14 A3036 RMK A01 T02030135  RH  065%=      5-min Rain = 0
KFR1 231350Z 10008KT 20/14 A3036 RMK A01 T02030136  RH  065%=      5-min Rain = 0
KFR1 231351Z 10007KT 20/14 A3036 RMK A01 T02030135  RH  065%=      5-min Rain = 0
KFR1 231352Z 11007KT 20/14 A3036 RMK A01 T02030135  RH  065%=      5-min Rain = 0
KFR1 231353Z 10008KT 20/14 A3036 RMK A01 T02040136  RH  065%=      5-min Rain = 0
KFR1 231354Z 10007KT 21/14 A3036 RMK A01 T02050136  RH  064%=      5-min Rain = 0
KFR1 231355Z 09006KT 21/14 A3036 RMK A01 T02060136  RH  064%=      5-min Rain = 0
KFR1 231356Z 10005KT 21/14 A3036 RMK A01 T02060137  RH  065%=      5-min Rain = 0
KFR1 231357Z 13005KT 21/14 A3036 RMK A01 T02090139  RH  064%=      5-min Rain = 0
KFR1 231358Z 11005KT 21/14 A3036 RMK A01 T02100138  RH  063%=      5-min Rain = 0
KFR1 231359Z 10006KT 21/14 A3036 RMK A01 T02110137  RH  063%=      5-min Rain = 0
KFR1 231400Z 10005KT 21/14 A3036 RMK A01 T02100137  RH  063%=      5-min Rain = 0
KFR1 231401Z 10006KT 21/14 A3036 RMK A01 T02100138  RH  063%=      5-min Rain = 0
KFR1 231402Z 12006KT 21/14 A3036 RMK A01 T02120138  RH  063%=      5-min Rain = 0
KFR1 231403Z 10006KT 21/14 A3036 RMK A01 T02130138  RH  062%=      5-min Rain = 0
KFR1 231404Z 10006KT 21/14 A3036 RMK A01 T02130138  RH  062%=      5-min Rain = 0
KFR1 231405Z 10007KT 21/14 A3036 RMK A01 T02130137  RH  062%=      5-min Rain = 0
KFR1 231406Z 09007KT 21/14 A3036 RMK A01 T02120137  RH  062%=      5-min Rain = 0
KFR1 231407Z 09006KT 21/14 A3037 RMK A01 T02120138  RH  063%=      5-min Rain = 0
KFR1 231408Z 10005KT 21/14 A3037 RMK A01 T02120138  RH  063%=      5-min Rain = 0
KFR1 231409Z 11006KT 21/14 A3037 RMK A01 T02120139  RH  063%=      5-min Rain = 0
KFR1 231410Z 12005KT 21/14 A3037 RMK A01 T02130139  RH  063%=      5-min Rain = 0
KFR1 231411Z 13004KT 21/14 A3037 RMK A01 T02130138  RH  062%=      5-min Rain = 0
KFR1 231412Z 12004KT 21/14 A3037 RMK A01 T02130138  RH  062%=      5-min Rain = 0
KFR1 231413Z 10005KT 21/14 A3037 RMK A01 T02130139  RH  063%=      5-min Rain = 0
KFR1 231414Z 10004KT 21/14 A3037 RMK A01 T02140139  RH  062%=      5-min Rain = 0
KFR1 231415Z 10004KT 22/14 A3037 RMK A01 T02150140  RH  062%=      5-min Rain = 0
KFR1 231416Z 10005KT 22/14 A3037 RMK A01 T02160141  RH  062%=      5-min Rain = 0
KFR1 231417Z 11007KT 22/14 A3037 RMK A01 T02180140  RH  061%=      5-min Rain = 0
KFR1 231418Z 11006KT 22/14 A3037 RMK A01 T02190140  RH  061%=      5-min Rain = 0
KFR1 231419Z 10004KT 22/14 A3037 RMK A01 T02180139  RH  061%=      5-min Rain = 0
KFR1 231420Z 10005KT 22/14 A3037 RMK A01 T02180140  RH  061%=      5-min Rain = 0
KFR1 231421Z 11006KT 22/14 A3037 RMK A01 T02190139  RH  060%=      5-min Rain = 0
KFR1 231422Z 12007KT 22/14 A3037 RMK A01 T02190139  RH  060%=      5-min Rain = 0
KFR1 231423Z 13004KT 22/14 A3037 RMK A01 T02210140  RH  060%=      5-min Rain = 0
KFR1 231424Z 13005KT 22/14 A3037 RMK A01 T02220140  RH  060%=      5-min Rain = 0
KFR1 231425Z 13003KT 22/14 A3037 RMK A01 T02210140  RH  060%=      5-min Rain = 0
KFR1 231426Z 15004KT 22/14 A3037 RMK A01 T02220141  RH  060%=      5-min Rain = 0
KFR1 231427Z 10003KT 23/14 A3037 RMK A01 T02250140  RH  059%=      5-min Rain = 0
KFR1 231428Z 09007KT 23/14 A3037 RMK A01 T02250142  RH  059%=      5-min Rain = 0
KFR1 231429Z 10005KT 23/14 A3037 RMK A01 T02250140  RH  059%=      5-min Rain = 0
KFR1 231430Z 11007KT 22/14 A3037 RMK A01 T02240141  RH  059%=      5-min Rain = 0
KFR1 231431Z 11005KT 22/14 A3037 RMK A01 T02240139  RH  059%=      5-min Rain = 0
KFR1 231432Z 13002KT 22/14 A3037 RMK A01 T02220140  RH  059%=      5-min Rain = 0
KFR1 231433Z 15002KT 22/14 A3037 RMK A01 T02240142  RH  060%=      5-min Rain = 0
KFR1 231434Z 16002KT 23/14 A3037 RMK A01 T02260142  RH  059%=      5-min Rain = 0
KFR1 231435Z 13005KT 23/14 A3037 RMK A01 T02270141  RH  058%=      5-min Rain = 0
KFR1 231436Z 12006KT 23/14 A3037 RMK A01 T02270140  RH  058%=      5-min Rain = 0
KFR1 231437Z 14005KT 23/14 A3037 RMK A01 T02260141  RH  058%=      5-min Rain = 0
KFR1 231438Z 16005KT 23/14 A3037 RMK A01 T02280141  RH  058%=      5-min Rain = 0
KFR1 231439Z 15004KT 23/14 A3037 RMK A01 T02290140  RH  057%=      5-min Rain = 0
KFR1 231440Z 17003KT 23/14 A3037 RMK A01 T02300143  RH  058%=      5-min Rain = 0
KFR1 231441Z 13004KT 23/14 A3037 RMK A01 T02310143  RH  058%=      5-min Rain = 0
KFR1 231442Z 12004KT 23/14 A3037 RMK A01 T02310140  RH  056%=      5-min Rain = 0
KFR1 231443Z 12004KT 23/14 A3037 RMK A01 T02260139  RH  058%=      5-min Rain = 0
KFR1 231444Z 16004KT 23/14 A3037 RMK A01 T02250139  RH  058%=      5-min Rain = 0
KFR1 231445Z 17005KT 23/14 A3037 RMK A01 T02250140  RH  059%=      5-min Rain = 0
KFR1 231446Z 17005KT 23/14 A3037 RMK A01 T02260139  RH  058%=      5-min Rain = 0
KFR1 231447Z 17005KT 23/14 A3037 RMK A01 T02250139  RH  058%=      5-min Rain = 0
KFR1 231448Z 17005KT 23/14 A3037 RMK A01 T02250141  RH  059%=      5-min Rain = 0
KFR1 231449Z 15004KT 23/14 A3037 RMK A01 T02270142  RH  059%=      5-min Rain = 0
KFR1 231450Z 15004KT 23/14 A3037 RMK A01 T02270141  RH  058%=      5-min Rain = 0
KFR1 231451Z 14005KT 23/14 A3037 RMK A01 T02280142  RH  058%=      5-min Rain = 0
KFR1 231452Z 12006KT 23/14 A3037 RMK A01 T02300142  RH  058%=      5-min Rain = 0
KFR1 231453Z 11005KT 23/14 A3037 RMK A01 T02300140  RH  057%=      5-min Rain = 0
KFR1 231454Z 13004KT 23/14 A3037 RMK A01 T02300141  RH  057%=      5-min Rain = 0
KFR1 231455Z 15004KT 23/14 A3037 RMK A01 T02290140  RH  057%=      5-min Rain = 0
KFR1 231456Z 15004KT 23/14 A3037 RMK A01 T02290140  RH  057%=      5-min Rain = 0
KFR1 231457Z 16001KT 23/14 A3037 RMK A01 T02290140  RH  057%=      5-min Rain = 0
KFR1 231458Z 15001KT 23/14 A3037 RMK A01 T02300144  RH  058%=      5-min Rain = 0
KFR1 231459Z 12003KT 23/15 A3037 RMK A01 T02340145  RH  057%=      5-min Rain = 0
KFR1 231500Z 09004KT 24/14 A3036 RMK A01 T02370144  RH  056%=      5-min Rain = 0
KFR1 231501Z 12006KT 24/14 A3036 RMK A01 T02360143  RH  056%=      5-min Rain = 0
KFR1 231502Z 11005KT 24/14 A3037 RMK A01 T02350141  RH  055%=      5-min Rain = 0
KFR1 231503Z 11004KT 23/14 A3037 RMK A01 T02330139  RH  056%=      5-min Rain = 0
KFR1 231504Z 14003KT 23/14 A3037 RMK A01 T02310140  RH  056%=      5-min Rain = 0
KFR1 231505Z 13005KT 23/14 A3036 RMK A01 T02320141  RH  057%=      5-min Rain = 0
KFR1 231506Z 13007KT 24/14 A3036 RMK A01 T02350141  RH  056%=      5-min Rain = 0
KFR1 231507Z 12006KT 24/14 A3036 RMK A01 T02350139  RH  055%=      5-min Rain = 0
KFR1 231508Z 16006KT 23/14 A3036 RMK A01 T02340140  RH  056%=      5-min Rain = 0
KFR1 231509Z 15003KT 23/14 A3036 RMK A01 T02330139  RH  055%=      5-min Rain = 0
KFR1 231510Z 13003KT 23/14 A3036 RMK A01 T02320140  RH  056%=      5-min Rain = 0
KFR1 231511Z 12004KT 23/14 A3036 RMK A01 T02330140  RH  056%=      5-min Rain = 0
KFR1 231512Z 12005KT 23/14 A3036 RMK A01 T02340140  RH  055%=      5-min Rain = 0
KFR1 231513Z 12006KT 23/14 A3036 RMK A01 T02340140  RH  055%=      5-min Rain = 0
KFR1 231514Z 12005KT 23/14 A3036 RMK A01 T02340140  RH  055%=      5-min Rain = 0
KFR1 231515Z 14004KT 23/14 A3036 RMK A01 T02320138  RH  055%=      5-min Rain = 0
KFR1 231516Z 14001KT 23/14 A3036 RMK A01 T02310141  RH  057%=      5-min Rain = 0
KFR1 231517Z 12002KT 23/14 A3036 RMK A01 T02330140  RH  056%=      5-min Rain = 0
KFR1 231518Z 13004KT 24/14 A3036 RMK A01 T02350142  RH  056%=      5-min Rain = 0
KFR1 231519Z 13004KT 24/14 A3036 RMK A01 T02360140  RH  055%=      5-min Rain = 0
KFR1 231520Z 15005KT 24/14 A3036 RMK A01 T02360141  RH  055%=      5-min Rain = 0
KFR1 231521Z 16005KT 24/14 A3036 RMK A01 T02370140  RH  055%=      5-min Rain = 0
KFR1 231522Z 16003KT 24/14 A3036 RMK A01 T02380138  RH  054%=      5-min Rain = 0
KFR1 231523Z 16002KT 24/14 A3036 RMK A01 T02390143  RH  055%=      5-min Rain = 0
KFR1 231524Z 16001KT 24/14 A3036 RMK A01 T02420142  RH  054%=      5-min Rain = 0
KFR1 231525Z 19003KT 25/14 A3036 RMK A01 T02450142  RH  053%=      5-min Rain = 0
KFR1 231526Z 15001KT 25/14 A3036 RMK A01 T02460142  RH  052%=      5-min Rain = 0
KFR1 231527Z 18003KT 25/14 A3036 RMK A01 T02460143  RH  053%=      5-min Rain = 0
KFR1 231528Z 14004KT 25/15 A3036 RMK A01 T02460145  RH  053%=      5-min Rain = 0
KFR1 231529Z 14002KT 25/14 A3036 RMK A01 T02480144  RH  052%=      5-min Rain = 0
KFR1 231530Z 14003KT 25/14 A3036 RMK A01 T02500144  RH  052%=      5-min Rain = 0
KFR1 231531Z 10005KT 25/14 A3036 RMK A01 T02500141  RH  051%=      5-min Rain = 0
KFR1 231532Z 10005KT 25/14 A3036 RMK A01 T02450139  RH  051%=      5-min Rain = 0
KFR1 231533Z 11003KT 24/14 A3036 RMK A01 T02430139  RH  052%=      5-min Rain = 0
KFR1 231534Z 10003KT 24/14 A3036 RMK A01 T02410141  RH  053%=      5-min Rain = 0
KFR1 231535Z 14004KT 24/14 A3036 RMK A01 T02440143  RH  053%=      5-min Rain = 0
KFR1 231536Z 12005KT 25/14 A3036 RMK A01 T02460143  RH  053%=      5-min Rain = 0
KFR1 231537Z 11005KT 25/14 A3036 RMK A01 T02470141  RH  052%=      5-min Rain = 0
KFR1 231538Z 11005KT 24/14 A3036 RMK A01 T02440140  RH  052%=      5-min Rain = 0
KFR1 231539Z 16007KT 25/14 A3036 RMK A01 T02450142  RH  053%=      5-min Rain = 0
KFR1 231540Z 19006KT 25/14 A3036 RMK A01 T02450141  RH  052%=      5-min Rain = 0
KFR1 231541Z 20004KT 24/14 A3036 RMK A01 T02420139  RH  052%=      5-min Rain = 0
KFR1 231542Z 20003KT 24/14 A3036 RMK A01 T02400140  RH  053%=      5-min Rain = 0
KFR1 231543Z 23001KT 24/14 A3036 RMK A01 T02400138  RH  053%=      5-min Rain = 0
KFR1 231544Z 26001KT 24/14 A3036 RMK A01 T02400138  RH  053%=      5-min Rain = 0
KFR1 231545Z 14002KT 24/14 A3036 RMK A01 T02420141  RH  053%=      5-min Rain = 0
KFR1 231546Z 10004KT 25/14 A3036 RMK A01 T02450142  RH  053%=      5-min Rain = 0
KFR1 231547Z 09004KT 25/14 A3036 RMK A01 T02470143  RH  052%=      5-min Rain = 0
KFR1 231548Z 10002KT 25/14 A3036 RMK A01 T02470141  RH  052%=      5-min Rain = 0
KFR1 231549Z 10002KT 25/14 A3036 RMK A01 T02460142  RH  052%=      5-min Rain = 0
KFR1 231550Z 13004KT 25/14 A3036 RMK A01 T02480142  RH  052%=      5-min Rain = 0
KFR1 231551Z 13004KT 25/14 A3036 RMK A01 T02490144  RH  052%=      5-min Rain = 0
KFR1 231552Z 13004KT 25/14 A3036 RMK A01 T02510141  RH  051%=      5-min Rain = 0
KFR1 231553Z 20005KT 25/14 A3036 RMK A01 T02500140  RH  051%=      5-min Rain = 0
KFR1 231554Z 22004KT 25/14 A3036 RMK A01 T02490137  RH  049%=      5-min Rain = 0
KFR1 231555Z 18004KT 25/14 A3036 RMK A01 T02460137  RH  051%=      5-min Rain = 0
KFR1 231556Z 14003KT 25/14 A3036 RMK A01 T02450138  RH  051%=      5-min Rain = 0
KFR1 231557Z 14002KT 25/14 A3036 RMK A01 T02460136  RH  050%=      5-min Rain = 0
KFR1 231558Z 18005KT 25/14 A3036 RMK A01 T02460137  RH  050%=      5-min Rain = 0
KFR1 231559Z 19004KT 25/14 A3036 RMK A01 T02470136  RH  050%=      5-min Rain = 0
KFR1 231600Z 22003KT 25/14 A3036 RMK A01 T02470137  RH  050%=      5-min Rain = 0
KFR1 231601Z 23004KT 25/14 A3036 RMK A01 T02460136  RH  050%=      5-min Rain = 0
KFR1 231602Z 21003KT 25/14 A3036 RMK A01 T02460136  RH  051%=      5-min Rain = 0
KFR1 231603Z 19001KT 25/14 A3036 RMK A01 T02450139  RH  052%=      5-min Rain = 0
KFR1 231604Z 17001KT 25/14 A3036 RMK A01 T02480138  RH  050%=      5-min Rain = 0
KFR1 231605Z 21003KT 25/14 A3036 RMK A01 T02500139  RH  050%=      5-min Rain = 0
KFR1 231606Z 20004KT 25/14 A3036 RMK A01 T02530141  RH  050%=      5-min Rain = 0
KFR1 231607Z 22005KT 25/14 A3036 RMK A01 T02540141  RH  050%=      5-min Rain = 0
KFR1 231608Z 23006KT 25/14 A3036 RMK A01 T02540140  RH  049%=      5-min Rain = 0
KFR1 231609Z 20007KT 25/14 A3036 RMK A01 T02540140  RH  049%=      5-min Rain = 0
KFR1 231610Z 18005KT 25/14 A3036 RMK A01 T02540138  RH  049%=      5-min Rain = 0
KFR1 231611Z 21004KT 25/14 A3036 RMK A01 T02520137  RH  049%=      5-min Rain = 0
KFR1 231612Z 22003KT 25/14 A3035 RMK A01 T02500137  RH  049%=      5-min Rain = 0
KFR1 231613Z 24003KT 25/14 A3035 RMK A01 T02520138  RH  049%=      5-min Rain = 0
KFR1 231614Z 32002KT 25/14 A3035 RMK A01 T02520136  RH  049%=      5-min Rain = 0
KFR1 231615Z 31002KT 25/14 A3035 RMK A01 T02500137  RH  049%=      5-min Rain = 0
KFR1 231616Z 25005KT 25/14 A3035 RMK A01 T02520137  RH  049%=      5-min Rain = 0
KFR1 231617Z 24005KT 25/14 A3035 RMK A01 T02520137  RH  049%=      5-min Rain = 0
KFR1 231618Z 25007KT 25/14 A3035 RMK A01 T02520141  RH  050%=      5-min Rain = 0
KFR1 231619Z 25006KT 25/14 A3035 RMK A01 T02540141  RH  050%=      5-min Rain = 0
KFR1 231620Z 26004KT 25/14 A3035 RMK A01 T02540141  RH  049%=      5-min Rain = 0
KFR1 231621Z 29003KT 25/14 A3035 RMK A01 T02530142  RH  050%=      5-min Rain = 0
KFR1 231622Z 29003KT 26/14 A3035 RMK A01 T02560142  RH  049%=      5-min Rain = 0
KFR1 231623Z 27004KT 26/14 A3035 RMK A01 T02570140  RH  048%=      5-min Rain = 0
KFR1 231624Z 28002KT 26/14 A3035 RMK A01 T02570142  RH  049%=      5-min Rain = 0
KFR1 231625Z 27003KT 26/14 A3035 RMK A01 T02590140  RH  048%=      5-min Rain = 0
KFR1 231626Z 27003KT 26/14 A3035 RMK A01 T02590140  RH  048%=      5-min Rain = 0
KFR1 231627Z 25001KT 26/14 A3035 RMK A01 T02580140  RH  048%=      5-min Rain = 0
KFR1 231628Z 23002KT 26/14 A3035 RMK A01 T02580139  RH  048%=      5-min Rain = 0
KFR1 231629Z 12003KT 26/14 A3035 RMK A01 T02570139  RH  048%=      5-min Rain = 0
KFR1 231630Z 21004KT 26/14 A3035 RMK A01 T02590141  RH  048%=      5-min Rain = 0
KFR1 231631Z 18003KT 26/14 A3035 RMK A01 T02610138  RH  047%=      5-min Rain = 0
KFR1 231632Z 17000KT 26/14 A3035 RMK A01 T02600140  RH  047%=      5-min Rain = 0
KFR1 231633Z 17001KT 26/14 A3035 RMK A01 T02610141  RH  047%=      5-min Rain = 0
KFR1 231634Z 17000KT 26/15 A3035 RMK A01 T02640145  RH  048%=      5-min Rain = 0
KFR1 231635Z 26002KT 27/15 A3035 RMK A01 T02650145  RH  048%=      5-min Rain = 0
KFR1 231636Z 32002KT 27/15 A3035 RMK A01 T02650149  RH  049%=      5-min Rain = 0
KFR1 231637Z 31004KT 27/14 A3035 RMK A01 T02650144  RH  047%=      5-min Rain = 0
KFR1 231638Z 31002KT 26/14 A3035 RMK A01 T02600143  RH  048%=      5-min Rain = 0
KFR1 231639Z 29004KT 26/14 A3035 RMK A01 T02600144  RH  049%=      5-min Rain = 0
KFR1 231640Z 27002KT 26/14 A3035 RMK A01 T02600141  RH  048%=      5-min Rain = 0
KFR1 231641Z 29002KT 26/14 A3035 RMK A01 T02600143  RH  049%=      5-min Rain = 0
KFR1 231642Z 30002KT 26/14 A3035 RMK A01 T02600141  RH  048%=      5-min Rain = 0
KFR1 231643Z 30002KT 26/14 A3035 RMK A01 T02600142  RH  048%=      5-min Rain = 0
KFR1 231644Z 28004KT 26/14 A3035 RMK A01 T02610140  RH  047%=      5-min Rain = 0
KFR1 231645Z 28003KT 26/14 A3035 RMK A01 T02600139  RH  047%=      5-min Rain = 0
KFR1 231646Z 26003KT 26/14 A3035 RMK A01 T02590138  RH  047%=      5-min Rain = 0
KFR1 231647Z 31002KT 26/14 A3035 RMK A01 T02580140  RH  048%=      5-min Rain = 0
KFR1 231648Z 30004KT 26/14 A3035 RMK A01 T02600139  RH  047%=      5-min Rain = 0
KFR1 231649Z 29002KT 26/14 A3035 RMK A01 T02590137  RH  047%=      5-min Rain = 0
KFR1 231650Z 29003KT 26/14 A3035 RMK A01 T02580138  RH  047%=      5-min Rain = 0
KFR1 231651Z 28004KT 26/14 A3035 RMK A01 T02580138  RH  048%=      5-min Rain = 0
KFR1 231652Z 29004KT 26/14 A3035 RMK A01 T02580137  RH  047%=      5-min Rain = 0
KFR1 231653Z 33004KT 26/14 A3035 RMK A01 T02580142  RH  049%=      5-min Rain = 0
KFR1 231654Z 32005KT 26/14 A3035 RMK A01 T02600142  RH  048%=      5-min Rain = 0
KFR1 231655Z 35004KT 26/14 A3035 RMK A01 T02600141  RH  048%=      5-min Rain = 0
KFR1 231656Z 35002KT 26/14 A3035 RMK A01 T02600142  RH  048%=      5-min Rain = 0
KFR1 231657Z 32003KT 26/14 A3035 RMK A01 T02580138  RH  047%=      5-min Rain = 0
KFR1 231658Z 30003KT 26/14 A3035 RMK A01 T02580136  RH  047%=      5-min Rain = 0
KFR1 231659Z 29003KT 26/14 A3035 RMK A01 T02580137  RH  047%=      5-min Rain = 0
KFR1 231700Z 28002KT 26/14 A3035 RMK A01 T02580138  RH  048%=      5-min Rain = 0
KFR1 231701Z 26003KT 26/14 A3035 RMK A01 T02620142  RH  048%=      5-min Rain = 0
KFR1 231702Z 32001KT 27/14 A3035 RMK A01 T02680143  RH  046%=      5-min Rain = 0
KFR1 231703Z 29002KT 27/14 A3034 RMK A01 T02730142  RH  045%=      5-min Rain = 0
KFR1 231704Z 29002KT 28/14 A3034 RMK A01 T02750140  RH  043%=      5-min Rain = 0
KFR1 231705Z 03003KT 27/14 A3034 RMK A01 T02740140  RH  044%=      5-min Rain = 0
KFR1 231706Z 02004KT 27/15 A3034 RMK A01 T02730145  RH  045%=      5-min Rain = 0
KFR1 231707Z 03006KT 27/14 A3034 RMK A01 T02710141  RH  045%=      5-min Rain = 0
KFR1 231708Z 02007KT 27/14 A3034 RMK A01 T02680142  RH  046%=      5-min Rain = 0
KFR1 231709Z 02006KT 27/14 A3034 RMK A01 T02650140  RH  046%=      5-min Rain = 0
KFR1 231710Z 02004KT 27/14 A3034 RMK A01 T02650144  RH  047%=      5-min Rain = 0
KFR1 231711Z 35005KT 27/14 A3034 RMK A01 T02690143  RH  046%=      5-min Rain = 0
KFR1 231712Z 34004KT 27/14 A3034 RMK A01 T02720143  RH  045%=      5-min Rain = 0
KFR1 231713Z 33004KT 27/14 A3034 RMK A01 T02710142  RH  045%=      5-min Rain = 0
KFR1 231714Z 30004KT 27/14 A3034 RMK A01 T02720139  RH  044%=      5-min Rain = 0
KFR1 231715Z 31005KT 27/14 A3034 RMK A01 T02710139  RH  044%=      5-min Rain = 0
KFR1 231716Z 32006KT 27/14 A3034 RMK A01 T02660137  RH  045%=      5-min Rain = 0
KFR1 231717Z 29004KT 26/14 A3034 RMK A01 T02600137  RH  047%=      5-min Rain = 0
KFR1 231718Z 29003KT 26/14 A3034 RMK A01 T02570139  RH  048%=      5-min Rain = 0
KFR1 231719Z 31005KT 26/14 A3034 RMK A01 T02570139  RH  048%=      5-min Rain = 0
KFR1 231720Z 30004KT 26/14 A3034 RMK A01 T02570137  RH  047%=      5-min Rain = 0
KFR1 231721Z 29004KT 26/14 A3034 RMK A01 T02560138  RH  048%=      5-min Rain = 0
KFR1 231722Z 29005KT 26/14 A3034 RMK A01 T02550138  RH  048%=      5-min Rain = 0
KFR1 231723Z 29005KT 26/14 A3034 RMK A01 T02550138  RH  048%=      5-min Rain = 0
KFR1 231724Z 29005KT 26/14 A3034 RMK A01 T02550139  RH  049%=      5-min Rain = 0
KFR1 231725Z 28004KT 25/14 A3034 RMK A01 T02530138  RH  049%=      5-min Rain = 0
KFR1 231726Z 28003KT 25/14 A3033 RMK A01 T02520138  RH  049%=      5-min Rain = 0
KFR1 231727Z 29004KT 25/14 A3033 RMK A01 T02520137  RH  049%=      5-min Rain = 0
KFR1 231728Z 28002KT 25/14 A3033 RMK A01 T02540137  RH  048%=      5-min Rain = 0
KFR1 231729Z 29003KT 26/14 A3033 RMK A01 T02570137  RH  048%=      5-min Rain = 0
KFR1 231730Z 30001KT 26/14 A3033 RMK A01 T02590137  RH  047%=      5-min Rain = 0
KFR1 231731Z 30001KT 26/14 A3033 RMK A01 T02610137  RH  046%=      5-min Rain = 0
KFR1 231732Z 32002KT 26/14 A3033 RMK A01 T02640138  RH  046%=      5-min Rain = 0
KFR1 231733Z 31002KT 26/14 A3033 RMK A01 T02640137  RH  045%=      5-min Rain = 0
KFR1 231734Z 33001KT 26/14 A3033 RMK A01 T02640137  RH  045%=      5-min Rain = 0
KFR1 231735Z 35002KT 27/14 A3033 RMK A01 T02660139  RH  045%=      5-min Rain = 0
KFR1 231736Z 34002KT 27/14 A3033 RMK A01 T02690140  RH  045%=      5-min Rain = 0
KFR1 231737Z 05001KT 27/14 A3032 RMK A01 T02720140  RH  044%=      5-min Rain = 0
KFR1 231738Z 00000KT 27/14 A3032 RMK A01 T02720142  RH  045%=      5-min Rain = 0
KFR1 231739Z 05002KT 28/14 A3032 RMK A01 T02770143  RH  044%=      5-min Rain = 0
KFR1 231740Z 09002KT 28/15 A3032 RMK A01 T02800146  RH  044%=      5-min Rain = 0
KFR1 231741Z 26002KT 28/14 A3032 RMK A01 T02830142  RH  042%=      5-min Rain = 0
KFR1 231742Z 32004KT 28/14 A3032 RMK A01 T02830142  RH  042%=      5-min Rain = 0
KFR1 231743Z 28004KT 28/14 A3032 RMK A01 T02820141  RH  042%=      5-min Rain = 0
KFR1 231744Z 28003KT 28/14 A3032 RMK A01 T02800140  RH  042%=      5-min Rain = 0
KFR1 231745Z 26002KT 28/14 A3032 RMK A01 T02800144  RH  043%=      5-min Rain = 0
KFR1 231746Z 19003KT 28/14 A3032 RMK A01 T02820140  RH  042%=      5-min Rain = 0
KFR1 231747Z 20004KT 28/14 A3032 RMK A01 T02790138  RH  042%=      5-min Rain = 0
KFR1 231748Z 25003KT 28/14 A3032 RMK A01 T02750138  RH  043%=      5-min Rain = 0
KFR1 231749Z 29002KT 28/14 A3032 RMK A01 T02750141  RH  044%=      5-min Rain = 0
KFR1 231750Z 01003KT 28/14 A3032 RMK A01 T02780142  RH  043%=      5-min Rain = 0
KFR1 231751Z 35004KT 28/14 A3032 RMK A01 T02790140  RH  043%=      5-min Rain = 0
KFR1 231752Z 36003KT 28/14 A3032 RMK A01 T02770138  RH  043%=      5-min Rain = 0
KFR1 231753Z 01004KT 28/14 A3032 RMK A01 T02750139  RH  043%=      5-min Rain = 0
KFR1 231754Z 36005KT 28/14 A3032 RMK A01 T02760140  RH  043%=      5-min Rain = 0
KFR1 231755Z 33005KT 28/14 A3032 RMK A01 T02750140  RH  044%=      5-min Rain = 0
KFR1 231756Z 34006KT 27/14 A3032 RMK A01 T02740138  RH  043%=      5-min Rain = 0
KFR1 231757Z 34005KT 27/14 A3032 RMK A01 T02720136  RH  043%=      5-min Rain = 0
KFR1 231758Z 34004KT 27/14 A3032 RMK A01 T02700138  RH  044%=      5-min Rain = 0
KFR1 231759Z 01005KT 27/14 A3032 RMK A01 T02720144  RH  045%=      5-min Rain = 0
KFR1 231800Z 34005KT 28/14 A3031 RMK A01 T02750142  RH  044%=      5-min Rain = 0
KFR1 231801Z 35006KT 28/14 A3032 RMK A01 T02770141  RH  043%=      5-min Rain = 0
KFR1 231802Z 35005KT 28/14 A3031 RMK A01 T02760142  RH  044%=      5-min Rain = 0
KFR1 231803Z 33004KT 28/14 A3031 RMK A01 T02780142  RH  043%=      5-min Rain = 0
KFR1 231804Z 33006KT 28/14 A3031 RMK A01 T02810142  RH  043%=      5-min Rain = 0
KFR1 231805Z 33005KT 28/14 A3031 RMK A01 T02800140  RH  042%=      5-min Rain = 0
KFR1 231806Z 33003KT 28/14 A3031 RMK A01 T02790142  RH  043%=      5-min Rain = 0
KFR1 231807Z 00005KT 28/14 A3031 RMK A01 T02790144  RH  044%=      5-min Rain = 0
KFR1 231808Z 35007KT 28/14 A3031 RMK A01 T02770140  RH  043%=      5-min Rain = 0
KFR1 231809Z 33005KT 27/14 A3031 RMK A01 T02700136  RH  044%=      5-min Rain = 0
KFR1 231810Z 35004KT 27/14 A3031 RMK A01 T02660137  RH  045%=      5-min Rain = 0
KFR1 231811Z 36006KT 27/14 A3031 RMK A01 T02650141  RH  046%=      5-min Rain = 0
KFR1 231812Z 34005KT 26/14 A3031 RMK A01 T02640140  RH  046%=      5-min Rain = 0
KFR1 231813Z 33006KT 26/14 A3031 RMK A01 T02630140  RH  047%=      5-min Rain = 0
KFR1 231814Z 34006KT 26/14 A3031 RMK A01 T02610138  RH  047%=      5-min Rain = 0
KFR1 231815Z 32006KT 26/14 A3031 RMK A01 T02600138  RH  047%=      5-min Rain = 0
KFR1 231816Z 32005KT 26/14 A3031 RMK A01 T02580140  RH  048%=      5-min Rain = 0
KFR1 231817Z 34005KT 26/14 A3031 RMK A01 T02590142  RH  049%=      5-min Rain = 0
KFR1 231818Z 34006KT 26/14 A3031 RMK A01 T02600140  RH  048%=      5-min Rain = 0
KFR1 231819Z 33005KT 26/14 A3031 RMK A01 T02600140  RH  048%=      5-min Rain = 0
KFR1 231820Z 33005KT 26/14 A3031 RMK A01 T02600141  RH  048%=      5-min Rain = 0
KFR1 231821Z 32005KT 26/14 A3031 RMK A01 T02610141  RH  048%=      5-min Rain = 0
KFR1 231822Z 33005KT 26/14 A3031 RMK A01 T02620142  RH  047%=      5-min Rain = 0
KFR1 231823Z 35005KT 26/14 A3031 RMK A01 T02630142  RH  047%=      5-min Rain = 0
KFR1 231824Z 35006KT 27/14 A3031 RMK A01 T02650144  RH  047%=      5-min Rain = 0
KFR1 231825Z 35006KT 27/15 A3031 RMK A01 T02660145  RH  047%=      5-min Rain = 0
KFR1 231826Z 35006KT 27/15 A3031 RMK A01 T02670146  RH  047%=      5-min Rain = 0
KFR1 231827Z 35006KT 27/14 A3031 RMK A01 T02680144  RH  046%=      5-min Rain = 0
KFR1 231828Z 34006KT 27/15 A3031 RMK A01 T02690145  RH  046%=      5-min Rain = 0
KFR1 231829Z 33006KT 27/14 A303 RMK A01 T02710143  RH  045%=      5-min Rain = 0
KFR1 231830Z 33005KT 27/15 A303 RMK A01 T02720145  RH  046%=      5-min Rain = 0
KFR1 231831Z 33005KT 28/15 A303 RMK A01 T02760145  RH  045%=      5-min Rain = 0
KFR1 231832Z 33005KT 28/15 A303 RMK A01 T02800146  RH  044%=      5-min Rain = 0
KFR1 231833Z 33005KT 28/15 A303 RMK A01 T02830146  RH  043%=      5-min Rain = 0
KFR1 231834Z 35005KT 28/15 A303 RMK A01 T02830145  RH  043%=      5-min Rain = 0
KFR1 231835Z 34006KT 28/14 A303 RMK A01 T02830143  RH  042%=      5-min Rain = 0
KFR1 231836Z 30005KT 28/14 A303 RMK A01 T02830142  RH  042%=      5-min Rain = 0
KFR1 231837Z 32006KT 28/14 A303 RMK A01 T02810143  RH  043%=      5-min Rain = 0
KFR1 231838Z 32005KT 28/14 A303 RMK A01 T02780137  RH  042%=      5-min Rain = 0
KFR1 231839Z 31005KT 27/14 A303 RMK A01 T02740138  RH  043%=      5-min Rain = 0
KFR1 231840Z 29004KT 27/14 A303 RMK A01 T02720137  RH  043%=      5-min Rain = 0
KFR1 231841Z 30003KT 27/13 A303 RMK A01 T02700134  RH  043%=      5-min Rain = 0
KFR1 231842Z 29003KT 27/14 A303 RMK A01 T02700137  RH  044%=      5-min Rain = 0
KFR1 231843Z 29004KT 27/14 A303 RMK A01 T02730137  RH  043%=      5-min Rain = 0
KFR1 231844Z 30004KT 27/14 A303 RMK A01 T02740135  RH  042%=      5-min Rain = 0
KFR1 231845Z 30003KT 27/14 A303 RMK A01 T02740136  RH  043%=      5-min Rain = 0
KFR1 231846Z 34004KT 27/14 A303 RMK A01 T02740139  RH  043%=      5-min Rain = 0
KFR1 231847Z 34004KT 27/14 A303 RMK A01 T02740139  RH  043%=      5-min Rain = 0
KFR1 231848Z 32005KT 27/14 A303 RMK A01 T02730137  RH  043%=      5-min Rain = 0
KFR1 231849Z 34004KT 27/14 A303 RMK A01 T02710136  RH  043%=      5-min Rain = 0
KFR1 231850Z 33004KT 27/14 A303 RMK A01 T02710136  RH  043%=      5-min Rain = 0
KFR1 231851Z 33004KT 27/14 A303 RMK A01 T02710136  RH  043%=      5-min Rain = 0
KFR1 231852Z 33005KT 27/14 A303 RMK A01 T02730137  RH  043%=      5-min Rain = 0
KFR1 231853Z 33002KT 27/14 A303 RMK A01 T02740136  RH  043%=      5-min Rain = 0
KFR1 231854Z 33004KT 28/14 A303 RMK A01 T02750137  RH  043%=      5-min Rain = 0
KFR1 231855Z 29002KT 27/14 A303 RMK A01 T02740136  RH  042%=      5-min Rain = 0
KFR1 231856Z 32003KT 27/14 A303 RMK A01 T02730137  RH  043%=      5-min Rain = 0
KFR1 231857Z 31003KT 27/14 A303 RMK A01 T02740136  RH  043%=      5-min Rain = 0
KFR1 231858Z 33003KT 28/14 A303 RMK A01 T02760136  RH  042%=      5-min Rain = 0
KFR1 231859Z 03003KT 28/14 A303 RMK A01 T02770140  RH  043%=      5-min Rain = 0
KFR1 231900Z 05004KT 28/14 A3029 RMK A01 T02810141  RH  042%=      5-min Rain = 0
KFR1 231901Z 08003KT 28/14 A3029 RMK A01 T02810139  RH  042%=      5-min Rain = 0
KFR1 231902Z 13002KT 28/14 A3029 RMK A01 T02800138  RH  042%=      5-min Rain = 0
KFR1 231903Z 09001KT 28/14 A3029 RMK A01 T02780140  RH  043%=      5-min Rain = 0
KFR1 231904Z 14003KT 28/15 A3029 RMK A01 T02810146  RH  044%=      5-min Rain = 0
KFR1 231905Z 14003KT 29/14 A3029 RMK A01 T02850142  RH  042%=      5-min Rain = 0
KFR1 231906Z 13003KT 29/14 A3029 RMK A01 T02860143  RH  042%=      5-min Rain = 0
KFR1 231907Z 10003KT 29/14 A3029 RMK A01 T02850143  RH  042%=      5-min Rain = 0
KFR1 231908Z 36006KT 29/14 A3029 RMK A01 T02860144  RH  042%=      5-min Rain = 0
KFR1 231909Z 32003KT 29/14 A3029 RMK A01 T02870143  RH  041%=      5-min Rain = 0
KFR1 231910Z 02005KT 29/15 A3029 RMK A01 T02930151  RH  042%=      5-min Rain = 0
KFR1 231911Z 00007KT 29/15 A3029 RMK A01 T02940148  RH  041%=      5-min Rain = 0
KFR1 231912Z 01008KT 29/14 A3029 RMK A01 T02900140  RH  040%=      5-min Rain = 0
KFR1 231913Z 02007KT 28/13 A3029 RMK A01 T02820133  RH  040%=      5-min Rain = 0
KFR1 231914Z 00007KT 28/14 A3029 RMK A01 T02810138  RH  041%=      5-min Rain = 0
KFR1 231915Z 35007KT 28/14 A3029 RMK A01 T02830138  RH  041%=      5-min Rain = 0
KFR1 231916Z 35007KT 28/14 A3029 RMK A01 T02830135  RH  040%=      5-min Rain = 0
KFR1 231917Z 00006KT 28/14 A3029 RMK A01 T02840135  RH  040%=      5-min Rain = 0
KFR1 231918Z 00007KT 28/14 A3029 RMK A01 T02830141  RH  042%=      5-min Rain = 0
KFR1 231919Z 35009KT 29/14 A3029 RMK A01 T02850139  RH  041%=      5-min Rain = 0
KFR1 231920Z 35009KT 29/14 A3029 RMK A01 T02870139  RH  040%=      5-min Rain = 0
KFR1 231921Z 35006KT 29/14 A3029 RMK A01 T02890139  RH  040%=      5-min Rain = 0
KFR1 231922Z 34003KT 29/14 A3029 RMK A01 T02860136  RH  040%=      5-min Rain = 0
KFR1 231923Z 02005KT 29/14 A3029 RMK A01 T02860140  RH  041%=      5-min Rain = 0
KFR1 231924Z 02004KT 29/14 A3029 RMK A01 T02870138  RH  040%=      5-min Rain = 0
KFR1 231925Z 05004KT 29/14 A3029 RMK A01 T02870141  RH  041%=      5-min Rain = 0
KFR1 231926Z 04003KT 29/14 A3029 RMK A01 T02860136  RH  040%=      5-min Rain = 0
KFR1 231927Z 02002KT 28/14 A3029 RMK A01 T02830135  RH  040%=      5-min Rain = 0
KFR1 231928Z 01004KT 28/13 A3029 RMK A01 T02820134  RH  040%=      5-min Rain = 0
KFR1 231929Z 03004KT 28/13 A3029 RMK A01 T02820134  RH  040%=      5-min Rain = 0
KFR1 231930Z 06005KT 28/14 A3029 RMK A01 T02820135  RH  040%=      5-min Rain = 0
KFR1 231931Z 07003KT 28/13 A3029 RMK A01 T02820134  RH  040%=      5-min Rain = 0
KFR1 231932Z 04003KT 28/14 A3028 RMK A01 T02810135  RH  041%=      5-min Rain = 0
KFR1 231933Z 06003KT 28/14 A3028 RMK A01 T02820136  RH  040%=      5-min Rain = 0
KFR1 231934Z 10002KT 28/14 A3028 RMK A01 T02840136  RH  040%=      5-min Rain = 0
KFR1 231935Z 16003KT 29/14 A3029 RMK A01 T02860138  RH  040%=      5-min Rain = 0
KFR1 231936Z 18004KT 29/14 A3028 RMK A01 T02880137  RH  039%=      5-min Rain = 0
KFR1 231937Z 16003KT 29/14 A3028 RMK A01 T02890138  RH  040%=      5-min Rain = 0
KFR1 231938Z 16002KT 29/14 A3028 RMK A01 T02900141  RH  040%=      5-min Rain = 0
KFR1 231939Z 15006KT 29/14 A3028 RMK A01 T02930140  RH  039%=      5-min Rain = 0
KFR1 231940Z 15005KT 29/14 A3028 RMK A01 T02930139  RH  039%=      5-min Rain = 0
KFR1 231941Z 33005KT 29/14 A3028 RMK A01 T02940141  RH  039%=      5-min Rain = 0
KFR1 231942Z 01003KT 30/14 A3028 RMK A01 T02960140  RH  039%=      5-min Rain = 0
KFR1 231943Z 07002KT 30/14 A3028 RMK A01 T02950136  RH  038%=      5-min Rain = 0
KFR1 231944Z 04002KT 29/14 A3028 RMK A01 T02930138  RH  039%=      5-min Rain = 0
KFR1 231945Z 07006KT 29/14 A3028 RMK A01 T02910139  RH  039%=      5-min Rain = 0
KFR1 231946Z 06005KT 29/14 A3028 RMK A01 T02920141  RH  040%=      5-min Rain = 0
KFR1 231947Z 05005KT 29/14 A3028 RMK A01 T02930140  RH  039%=      5-min Rain = 0
KFR1 231948Z 10006KT 29/14 A3028 RMK A01 T02920140  RH  039%=      5-min Rain = 0
KFR1 231949Z 10004KT 29/14 A3028 RMK A01 T02920139  RH  039%=      5-min Rain = 0
KFR1 231950Z 12003KT 29/14 A3028 RMK A01 T02910136  RH  039%=      5-min Rain = 0
KFR1 231951Z 16003KT 29/14 A3028 RMK A01 T02900136  RH  039%=      5-min Rain = 0
KFR1 231952Z 14004KT 29/14 A3028 RMK A01 T02910138  RH  039%=      5-min Rain = 0
KFR1 231953Z 14006KT 29/14 A3028 RMK A01 T02930135  RH  038%=      5-min Rain = 0
KFR1 231954Z 15006KT 29/14 A3028 RMK A01 T02930135  RH  038%=      5-min Rain = 0
KFR1 231955Z 13004KT 29/13 A3028 RMK A01 T02930133  RH  037%=      5-min Rain = 0
KFR1 231956Z 12002KT 29/13 A3028 RMK A01 T02930132  RH  037%=      5-min Rain = 0
KFR1 231957Z 13000KT 29/13 A3028 RMK A01 T02930130  RH  037%=      5-min Rain = 0
KFR1 231958Z 11000KT 29/13 A3028 RMK A01 T02930129  RH  036%=      5-min Rain = 0
KFR1 231959Z 13003KT 29/13 A3028 RMK A01 T02940133  RH  037%=      5-min Rain = 0
KFR1 232000Z 15003KT 30/13 A3028 RMK A01 T02970133  RH  036%=      5-min Rain = 0
KFR1 232001Z 15003KT 30/13 A3028 RMK A01 T02970133  RH  037%=      5-min Rain = 0
KFR1 232002Z 13003KT 30/13 A3027 RMK A01 T02970134  RH  037%=      5-min Rain = 0
KFR1 232003Z 10002KT 30/13 A3027 RMK A01 T02960131  RH  036%=      5-min Rain = 0
KFR1 232004Z 06001KT 29/13 A3027 RMK A01 T02940131  RH  037%=      5-min Rain = 0
KFR1 232005Z 06001KT 30/13 A3027 RMK A01 T02950133  RH  037%=      5-min Rain = 0
KFR1 232006Z 05003KT 30/13 A3027 RMK A01 T02980133  RH  036%=      5-min Rain = 0
KFR1 232007Z 01004KT 30/14 A3027 RMK A01 T02970136  RH  037%=      5-min Rain = 0
KFR1 232008Z 02007KT 30/14 A3027 RMK A01 T02970141  RH  039%=      5-min Rain = 0
KFR1 232009Z 02007KT 30/14 A3027 RMK A01 T03000142  RH  038%=      5-min Rain = 0
KFR1 232010Z 02006KT 30/14 A3027 RMK A01 T02980138  RH  038%=      5-min Rain = 0
KFR1 232011Z 02004KT 30/14 A3027 RMK A01 T02950140  RH  039%=      5-min Rain = 0
KFR1 232012Z 00005KT 30/14 A3027 RMK A01 T02950140  RH  039%=      5-min Rain = 0
KFR1 232013Z 35005KT 30/14 A3027 RMK A01 T02960141  RH  039%=      5-min Rain = 0
KFR1 232014Z 36006KT 30/14 A3027 RMK A01 T02990142  RH  038%=      5-min Rain = 0
KFR1 232015Z 00006KT 30/14 A3027 RMK A01 T03010140  RH  037%=      5-min Rain = 0
KFR1 232016Z 00005KT 30/14 A3027 RMK A01 T03020142  RH  038%=      5-min Rain = 0
KFR1 232017Z 01007KT 30/14 A3027 RMK A01 T03020141  RH  037%=      5-min Rain = 0
KFR1 232018Z 03006KT 30/14 A3026 RMK A01 T03000139  RH  037%=      5-min Rain = 0
KFR1 232019Z 04004KT 30/14 A3027 RMK A01 T02990143  RH  039%=      5-min Rain = 0
KFR1 232020Z 05004KT 30/14 A3027 RMK A01 T03030141  RH  037%=      5-min Rain = 0
KFR1 232021Z 08008KT 30/14 A3027 RMK A01 T03010136  RH  037%=      5-min Rain = 0
KFR1 232022Z 08007KT 29/13 A3027 RMK A01 T02940131  RH  037%=      5-min Rain = 0
KFR1 232023Z 07005KT 29/13 A3027 RMK A01 T02900131  RH  038%=      5-min Rain = 0
KFR1 232024Z 08006KT 29/13 A3027 RMK A01 T02880132  RH  038%=      5-min Rain = 0
KFR1 232025Z 08008KT 29/13 A3026 RMK A01 T02890133  RH  038%=      5-min Rain = 0
KFR1 232026Z 07007KT 29/13 A3026 RMK A01 T02900133  RH  038%=      5-min Rain = 0
KFR1 232027Z 07005KT 29/13 A3026 RMK A01 T02910134  RH  038%=      5-min Rain = 0
KFR1 232028Z 06007KT 29/13 A3026 RMK A01 T02930134  RH  038%=      5-min Rain = 0
KFR1 232029Z 06006KT 29/13 A3026 RMK A01 T02920133  RH  038%=      5-min Rain = 0
KFR1 232030Z 07004KT 29/13 A3026 RMK A01 T02920133  RH  038%=      5-min Rain = 0
KFR1 232031Z 10004KT 29/13 A3026 RMK A01 T02920132  RH  037%=      5-min Rain = 0
KFR1 232032Z 08006KT 29/13 A3026 RMK A01 T02920133  RH  038%=      5-min Rain = 0
KFR1 232033Z 08004KT 29/13 A3026 RMK A01 T02930131  RH  037%=      5-min Rain = 0
KFR1 232034Z 18001KT 29/13 A3026 RMK A01 T02920129  RH  037%=      5-min Rain = 0
KFR1 232035Z 12003KT 29/13 A3026 RMK A01 T02920131  RH  037%=      5-min Rain = 0
KFR1 232036Z 12005KT 29/13 A3026 RMK A01 T02940132  RH  037%=      5-min Rain = 0
KFR1 232037Z 09006KT 30/13 A3026 RMK A01 T02950133  RH  037%=      5-min Rain = 0
KFR1 232038Z 08002KT 30/13 A3026 RMK A01 T02950133  RH  037%=      5-min Rain = 0
KFR1 232039Z 16002KT 30/13 A3026 RMK A01 T02950131  RH  036%=      5-min Rain = 0
KFR1 232040Z 15002KT 30/13 A3026 RMK A01 T02970133  RH  037%=      5-min Rain = 0
KFR1 232041Z 16003KT 30/13 A3026 RMK A01 T02980133  RH  036%=      5-min Rain = 0
KFR1 232042Z 11005KT 30/14 A3025 RMK A01 T02990136  RH  037%=      5-min Rain = 0
KFR1 232043Z 09003KT 30/13 A3025 RMK A01 T02990134  RH  037%=      5-min Rain = 0
KFR1 232044Z 11003KT 30/14 A3025 RMK A01 T02990140  RH  038%=      5-min Rain = 0
KFR1 232045Z 10006KT 30/14 A3025 RMK A01 T03020137  RH  036%=      5-min Rain = 0
KFR1 232046Z 09007KT 30/14 A3025 RMK A01 T03030135  RH  036%=      5-min Rain = 0
KFR1 232047Z 06006KT 30/13 A3025 RMK A01 T02990133  RH  036%=      5-min Rain = 0
KFR1 232048Z 05005KT 30/13 A3025 RMK A01 T02970132  RH  036%=      5-min Rain = 0
KFR1 232049Z 04005KT 30/13 A3025 RMK A01 T02950131  RH  037%=      5-min Rain = 0
KFR1 232050Z 06006KT 29/13 A3025 RMK A01 T02930132  RH  037%=      5-min Rain = 0
KFR1 232051Z 02004KT 29/13 A3025 RMK A01 T02930132  RH  037%=      5-min Rain = 0
KFR1 232052Z 09006KT 29/14 A3025 RMK A01 T02940136  RH  038%=      5-min Rain = 0
KFR1 232053Z 06009KT 30/14 A3025 RMK A01 T02990137  RH  037%=      5-min Rain = 0
KFR1 232054Z 07008KT 30/13 A3025 RMK A01 T02990134  RH  036%=      5-min Rain = 0
KFR1 232055Z 07007KT 30/14 A3025 RMK A01 T02980136  RH  037%=      5-min Rain = 0
KFR1 232056Z 07007KT 30/13 A3025 RMK A01 T02980133  RH  036%=      5-min Rain = 0
KFR1 232057Z 07007KT 30/13 A3025 RMK A01 T02970132  RH  036%=      5-min Rain = 0
KFR1 232058Z 07003KT 29/13 A3025 RMK A01 T02940130  RH  037%=      5-min Rain = 0
KFR1 232059Z 04004KT 29/13 A3025 RMK A01 T02920133  RH  038%=      5-min Rain = 0
KFR1 232100Z 03005KT 30/13 A3025 RMK A01 T02960134  RH  037%=      5-min Rain = 0
KFR1 232101Z 03005KT 30/14 A3025 RMK A01 T02990135  RH  037%=      5-min Rain = 0
KFR1 232102Z 03005KT 30/14 A3025 RMK A01 T02990136  RH  037%=      5-min Rain = 0
KFR1 232103Z 05006KT 30/14 A3025 RMK A01 T03020135  RH  036%=      5-min Rain = 0
KFR1 232104Z 06007KT 30/14 A3025 RMK A01 T03020137  RH  036%=      5-min Rain = 0
KFR1 232105Z 05006KT 30/14 A3025 RMK A01 T03020136  RH  036%=      5-min Rain = 0
KFR1 232106Z 09007KT 30/14 A3025 RMK A01 T03020136  RH  036%=      5-min Rain = 0
KFR1 232107Z 11006KT 30/13 A3025 RMK A01 T03000132  RH  036%=      5-min Rain = 0
KFR1 232108Z 09004KT 30/13 A3025 RMK A01 T02970130  RH  036%=      5-min Rain = 0
KFR1 232109Z 14001KT 29/13 A3025 RMK A01 T02940129  RH  036%=      5-min Rain = 0
KFR1 232110Z 18001KT 29/13 A3025 RMK A01 T02930130  RH  037%=      5-min Rain = 0
KFR1 232111Z 10002G7KT 29/13 A3025 RMK A01 T02920131  RH  037%=      5-min Rain = 0
KFR1 232112Z 08005KT 29/13 A3025 RMK A01 T02920131  RH  037%=      5-min Rain = 0
KFR1 232113Z 05003KT 29/13 A3025 RMK A01 T02890127  RH  037%=      5-min Rain = 0
KFR1 232114Z 06002KT 29/13 A3025 RMK A01 T02870129  RH  038%=      5-min Rain = 0
KFR1 232115Z 15003KT 29/13 A3025 RMK A01 T02870130  RH  038%=      5-min Rain = 0
KFR1 232116Z 15004KT 29/13 A3025 RMK A01 T02870128  RH  037%=      5-min Rain = 0
KFR1 232117Z 13004KT 29/13 A3025 RMK A01 T02880127  RH  037%=      5-min Rain = 0
KFR1 232118Z 14002KT 29/13 A3025 RMK A01 T02880125  RH  037%=      5-min Rain = 0
KFR1 232119Z 17001KT 29/13 A3025 RMK A01 T02880128  RH  037%=      5-min Rain = 0
KFR1 232120Z 20003KT 29/13 A3025 RMK A01 T02890128  RH  037%=      5-min Rain = 0
KFR1 232121Z 18002KT 29/13 A3025 RMK A01 T02900128  RH  037%=      5-min Rain = 0
KFR1 232122Z 17003KT 29/13 A3024 RMK A01 T02930131  RH  037%=      5-min Rain = 0
KFR1 232123Z 15004KT 30/13 A3024 RMK A01 T02970132  RH  036%=      5-min Rain = 0
KFR1 232124Z 14003KT 30/13 A3024 RMK A01 T02990129  RH  035%=      5-min Rain = 0
KFR1 232125Z 10002KT 30/13 A3024 RMK A01 T02990128  RH  035%=      5-min Rain = 0
KFR1 232126Z 06002KT 30/13 A3024 RMK A01 T02980129  RH  035%=      5-min Rain = 0
KFR1 232127Z 12000KT 30/13 A3024 RMK A01 T02980127  RH  035%=      5-min Rain = 0
KFR1 232128Z 12003KT 30/13 A3024 RMK A01 T02980129  RH  035%=      5-min Rain = 0
KFR1 232129Z 15002KT 30/13 A3024 RMK A01 T02990129  RH  035%=      5-min Rain = 0
KFR1 232130Z 14000KT 30/13 A3024 RMK A01 T02990128  RH  035%=      5-min Rain = 0
KFR1 232131Z 13003KT 30/13 A3024 RMK A01 T02980129  RH  036%=      5-min Rain = 0
KFR1 232132Z 10003KT 30/13 A3024 RMK A01 T02980128  RH  035%=      5-min Rain = 0
KFR1 232133Z 11002KT 30/13 A3024 RMK A01 T02980128  RH  035%=      5-min Rain = 0
KFR1 232134Z 11001KT 30/13 A3024 RMK A01 T02990128  RH  035%=      5-min Rain = 0
KFR1 232135Z 08004KT 30/13 A3024 RMK A01 T03000127  RH  035%=      5-min Rain = 0
KFR1 232136Z 07007KT 30/14 A3024 RMK A01 T03000135  RH  036%=      5-min Rain = 0
KFR1 232137Z 00004KT 30/14 A3024 RMK A01 T02990136  RH  037%=      5-min Rain = 0
KFR1 232138Z 34003KT 30/14 A3024 RMK A01 T03000136  RH  037%=      5-min Rain = 0
KFR1 232139Z 35004KT 30/14 A3024 RMK A01 T03010135  RH  036%=      5-min Rain = 0
KFR1 232140Z 01005KT 30/13 A3024 RMK A01 T03030134  RH  035%=      5-min Rain = 0
KFR1 232141Z 02004KT 30/13 A3024 RMK A01 T03040134  RH  036%=      5-min Rain = 0
KFR1 232142Z 02004KT 30/13 A3024 RMK A01 T03040134  RH  035%=      5-min Rain = 0
KFR1 232143Z 01006KT 31/13 A3024 RMK A01 T03050134  RH  035%=      5-min Rain = 0
KFR1 232144Z 01004KT 30/13 A3024 RMK A01 T03030130  RH  035%=      5-min Rain = 0
KFR1 232145Z 02002KT 30/13 A3023 RMK A01 T03010132  RH  036%=      5-min Rain = 0
KFR1 232146Z 03004KT 30/13 A3023 RMK A01 T03010133  RH  036%=      5-min Rain = 0
KFR1 232147Z 00002KT 30/14 A3023 RMK A01 T03030139  RH  037%=      5-min Rain = 0
KFR1 232148Z 00004KT 31/14 A3023 RMK A01 T03060138  RH  036%=      5-min Rain = 0
KFR1 232149Z 01005KT 31/14 A3023 RMK A01 T03050136  RH  036%=      5-min Rain = 0
KFR1 232150Z 35004KT 30/14 A3023 RMK A01 T03020140  RH  037%=      5-min Rain = 0
KFR1 232151Z 03007KT 30/14 A3023 RMK A01 T03020137  RH  036%=      5-min Rain = 0
KFR1 232152Z 10006KT 30/13 A3023 RMK A01 T03010134  RH  036%=      5-min Rain = 0
KFR1 232153Z 12003KT 30/13 A3023 RMK A01 T02990128  RH  035%=      5-min Rain = 0
KFR1 232154Z 10002KT 30/13 A3023 RMK A01 T02980127  RH  035%=      5-min Rain = 0
KFR1 232155Z 06001KT 30/13 A3023 RMK A01 T02970131  RH  036%=      5-min Rain = 0
KFR1 232156Z 09005KT 30/13 A3023 RMK A01 T03000133  RH  036%=      5-min Rain = 0
KFR1 232157Z 14002KT 30/13 A3023 RMK A01 T03020131  RH  035%=      5-min Rain = 0
KFR1 232158Z 13006KT 30/13 A3023 RMK A01 T03030129  RH  034%=      5-min Rain = 0
KFR1 232159Z 13007KT 30/13 A3023 RMK A01 T03020130  RH  035%=      5-min Rain = 0
KFR1 232200Z 12010KT 30/13 A3023 RMK A01 T03000130  RH  035%=      5-min Rain = 0
KFR1 232201Z 12011KT 30/13 A3023 RMK A01 T02990128  RH  035%=      5-min Rain = 0
KFR1 232202Z 12011KT 30/13 A3023 RMK A01 T02960126  RH  035%=      5-min Rain = 0
KFR1 232203Z 11010KT 29/13 A3023 RMK A01 T02930127  RH  036%=      5-min Rain = 0
KFR1 232204Z 11007KT 29/13 A3023 RMK A01 T02930127  RH  036%=      5-min Rain = 0
KFR1 232205Z 10008KT 29/13 A3023 RMK A01 T02930128  RH  036%=      5-min Rain = 0
KFR1 232206Z 08009KT 30/13 A3023 RMK A01 T02950127  RH  036%=      5-min Rain = 0
KFR1 232207Z 08010KT 30/13 A3023 RMK A01 T02970127  RH  035%=      5-min Rain = 0
KFR1 232208Z 11008KT 30/13 A3023 RMK A01 T02970127  RH  035%=      5-min Rain = 0
KFR1 232209Z 10007KT 30/13 A3023 RMK A01 T02990128  RH  035%=      5-min Rain = 0
KFR1 232210Z 11007KT 30/13 A3023 RMK A01 T02990127  RH  035%=      5-min Rain = 0
KFR1 232211Z 12007KT 30/13 A3023 RMK A01 T03010129  RH  035%=      5-min Rain = 0
KFR1 232212Z 11007KT 30/13 A3023 RMK A01 T03030127  RH  034%=      5-min Rain = 0
KFR1 232213Z 11006KT 30/13 A3023 RMK A01 T03000127  RH  035%=      5-min Rain = 0
KFR1 232214Z 13005KT 30/13 A3023 RMK A01 T02990126  RH  034%=      5-min Rain = 0
KFR1 232215Z 14003KT 30/13 A3023 RMK A01 T02980127  RH  035%=      5-min Rain = 0
KFR1 232216Z 08003KT 30/13 A3023 RMK A01 T03000128  RH  035%=      5-min Rain = 0
KFR1 232217Z 11004KT 30/13 A3023 RMK A01 T03000126  RH  034%=      5-min Rain = 0
KFR1 232218Z 08007KT 30/13 A3022 RMK A01 T03000128  RH  035%=      5-min Rain = 0
KFR1 232219Z 07005KT 30/13 A3023 RMK A01 T03010126  RH  034%=      5-min Rain = 0
KFR1 232220Z 07004KT 30/13 A3022 RMK A01 T03000126  RH  035%=      5-min Rain = 0
KFR1 232221Z 08003KT 30/13 A3022 RMK A01 T02990125  RH  034%=      5-min Rain = 0
KFR1 232222Z 05003KT 30/13 A3022 RMK A01 T02980125  RH  034%=      5-min Rain = 0
KFR1 232223Z 10006KT 30/13 A3022 RMK A01 T02990127  RH  035%=      5-min Rain = 0
KFR1 232224Z 12006KT 30/12 A3022 RMK A01 T03000123  RH  034%=      5-min Rain = 0
KFR1 232225Z 08004KT 30/13 A3022 RMK A01 T02990126  RH  035%=      5-min Rain = 0
KFR1 232226Z 06003KT 30/13 A3022 RMK A01 T03000125  RH  034%=      5-min Rain = 0
KFR1 232227Z 06004KT 30/13 A3022 RMK A01 T02990125  RH  034%=      5-min Rain = 0
KFR1 232228Z 09005KT 30/12 A3022 RMK A01 T02980124  RH  034%=      5-min Rain = 0
KFR1 232229Z 09002KT 30/12 A3022 RMK A01 T02960123  RH  034%=      5-min Rain = 0
KFR1 232230Z 06001KT 30/13 A3022 RMK A01 T02960126  RH  035%=      5-min Rain = 0
KFR1 232231Z 06001KT 30/13 A3022 RMK A01 T02990126  RH  035%=      5-min Rain = 0
KFR1 232232Z 06007KT 30/13 A3022 RMK A01 T03020128  RH  034%=      5-min Rain = 0
KFR1 232233Z 06006KT 30/13 A3022 RMK A01 T03030127  RH  034%=      5-min Rain = 0
KFR1 232234Z 08005KT 30/13 A3022 RMK A01 T03040126  RH  034%=      5-min Rain = 0
KFR1 232235Z 09004KT 30/13 A3022 RMK A01 T03040125  RH  033%=      5-min Rain = 0
KFR1 232236Z 12006KT 30/13 A3022 RMK A01 T03040125  RH  033%=      5-min Rain = 0
KFR1 232237Z 13005KT 30/12 A3022 RMK A01 T03040124  RH  033%=      5-min Rain = 0
KFR1 232238Z 15006KT 30/12 A3022 RMK A01 T03030123  RH  033%=      5-min Rain = 0
KFR1 232239Z 16005KT 30/12 A3022 RMK A01 T03010121  RH  033%=      5-min Rain = 0
KFR1 232240Z 17004KT 30/12 A3022 RMK A01 T02990122  RH  034%=      5-min Rain = 0
KFR1 232241Z 22003KT 30/12 A3022 RMK A01 T02980121  RH  034%=      5-min Rain = 0
KFR1 232242Z 22002KT 30/12 A3022 RMK A01 T02980121  RH  034%=      5-min Rain = 0
KFR1 232243Z 19002KT 30/12 A3022 RMK A01 T02980121  RH  034%=      5-min Rain = 0
KFR1 232244Z 19003KT 30/12 A3022 RMK A01 T02990122  RH  034%=      5-min Rain = 0
KFR1 232245Z 18003KT 30/12 A3022 RMK A01 T03000123  RH  034%=      5-min Rain = 0
KFR1 232246Z 17001KT 30/12 A3022 RMK A01 T03010124  RH  034%=      5-min Rain = 0
KFR1 232247Z 19001KT 30/12 A3022 RMK A01 T03040122  RH  033%=      5-min Rain = 0
KFR1 232248Z 25000KT 31/12 A3022 RMK A01 T03050122  RH  033%=      5-min Rain = 0
KFR1 232249Z 34001KT 30/12 A3022 RMK A01 T03030122  RH  033%=      5-min Rain = 0
KFR1 232250Z 32001KT 30/12 A3021 RMK A01 T03020122  RH  033%=      5-min Rain = 0
KFR1 232251Z 34001KT 30/12 A3021 RMK A01 T03010121  RH  033%=      5-min Rain = 0
KFR1 232252Z 33003KT 30/12 A3021 RMK A01 T03010122  RH  033%=      5-min Rain = 0
KFR1 232253Z 02004KT 30/12 A3021 RMK A01 T03010122  RH  033%=      5-min Rain = 0
KFR1 232254Z 09007KT 30/12 A3021 RMK A01 T03010124  RH  034%=      5-min Rain = 0
KFR1 232255Z 09007KT 30/13 A3021 RMK A01 T03010126  RH  034%=      5-min Rain = 0
KFR1 232256Z 10004KT 30/12 A3021 RMK A01 T03000124  RH  034%=      5-min Rain = 0
KFR1 232257Z 10007KT 30/13 A3021 RMK A01 T02990126  RH  034%=      5-min Rain = 0
KFR1 232258Z 08006KT 30/13 A3021 RMK A01 T03000125  RH  034%=      5-min Rain = 0
KFR1 232259Z 07006G11KT 30/13 A3021 RMK A01 T03000127  RH  035%=      5-min Rain = 0
KFR1 232300Z 07010KT 30/13 A3021 RMK A01 T03010128  RH  034%=      5-min Rain = 0
KFR1 232301Z 08009KT 30/13 A3021 RMK A01 T03010127  RH  034%=      5-min Rain = 0
KFR1 232302Z 08010KT 30/13 A3021 RMK A01 T03000127  RH  034%=      5-min Rain = 0
KFR1 232303Z 08010KT 30/13 A3021 RMK A01 T02990127  RH  035%=      5-min Rain = 0
KFR1 232304Z 09009KT 30/13 A3021 RMK A01 T02990127  RH  035%=      5-min Rain = 0
KFR1 232305Z 08009KT 30/13 A3021 RMK A01 T02990126  RH  034%=      5-min Rain = 0
KFR1 232306Z 06008KT 30/13 A3021 RMK A01 T02990126  RH  035%=      5-min Rain = 0
KFR1 232307Z 08008KT 30/13 A3021 RMK A01 T02980127  RH  035%=      5-min Rain = 0
KFR1 232308Z 08008KT 30/13 A3021 RMK A01 T02980125  RH  035%=      5-min Rain = 0
KFR1 232309Z 07008KT 30/13 A3021 RMK A01 T02950125  RH  035%=      5-min Rain = 0
KFR1 232310Z 06008KT 29/13 A3021 RMK A01 T02930125  RH  035%=      5-min Rain = 0
KFR1 232311Z 07008KT 29/13 A3021 RMK A01 T02920125  RH  036%=      5-min Rain = 0
KFR1 232312Z 06007KT 29/12 A3021 RMK A01 T02920123  RH  035%=      5-min Rain = 0
KFR1 232313Z 05007KT 29/12 A3021 RMK A01 T02920123  RH  035%=      5-min Rain = 0
KFR1 232314Z 03005KT 29/12 A3021 RMK A01 T02930124  RH  035%=      5-min Rain = 0
KFR1 232315Z 04005KT 29/13 A3021 RMK A01 T02940125  RH  035%=      5-min Rain = 0
KFR1 232316Z 06005KT 30/13 A3021 RMK A01 T02960128  RH  036%=      5-min Rain = 0
KFR1 232317Z 06007KT 30/13 A3021 RMK A01 T02980127  RH  035%=      5-min Rain = 0
KFR1 232318Z 08008KT 30/13 A3021 RMK A01 T03000127  RH  035%=      5-min Rain = 0
KFR1 232319Z 07008KT 30/13 A3021 RMK A01 T03000126  RH  034%=      5-min Rain = 0
KFR1 232320Z 06006KT 30/12 A3021 RMK A01 T02980124  RH  034%=      5-min Rain = 0
KFR1 232321Z 07008KT 30/13 A3021 RMK A01 T02980125  RH  035%=      5-min Rain = 0
KFR1 232322Z 07006KT 30/12 A3021 RMK A01 T02980124  RH  034%=      5-min Rain = 0
KFR1 232323Z 06005KT 30/12 A302 RMK A01 T02960123  RH  034%=      5-min Rain = 0
KFR1 232324Z 09005KT 29/12 A302 RMK A01 T02930122  RH  035%=      5-min Rain = 0
KFR1 232325Z 11009KT 29/12 A302 RMK A01 T02920124  RH  035%=      5-min Rain = 0
KFR1 232326Z 11006KT 29/12 A302 RMK A01 T02920123  RH  035%=      5-min Rain = 0
KFR1 232327Z 10007KT 29/12 A302 RMK A01 T02920123  RH  035%=      5-min Rain = 0
KFR1 232328Z 09006KT 29/12 A302 RMK A01 T02910124  RH  036%=      5-min Rain = 0
KFR1 232329Z 09007KT 29/12 A302 RMK A01 T02910124  RH  036%=      5-min Rain = 0
KFR1 232330Z 07006KT 29/12 A302 RMK A01 T02910124  RH  036%=      5-min Rain = 0
KFR1 232331Z 07008KT 29/13 A302 RMK A01 T02910125  RH  036%=      5-min Rain = 0
KFR1 232332Z 07006KT 29/12 A302 RMK A01 T02910123  RH  035%=      5-min Rain = 0
KFR1 232333Z 07006KT 29/12 A302 RMK A01 T02920124  RH  036%=      5-min Rain = 0
KFR1 232334Z 08005KT 29/13 A302 RMK A01 T02920125  RH  036%=      5-min Rain = 0
KFR1 232335Z 07007KT 29/12 A302 RMK A01 T02930123  RH  035%=      5-min Rain = 0
KFR1 232336Z 08005KT 29/12 A302 RMK A01 T02920124  RH  035%=      5-min Rain = 0
KFR1 232337Z 07006KT 29/13 A302 RMK A01 T02920125  RH  036%=      5-min Rain = 0
KFR1 232338Z 07004KT 29/12 A302 RMK A01 T02930122  RH  035%=      5-min Rain = 0
KFR1 232339Z 06004KT 29/12 A302 RMK A01 T02930124  RH  035%=      5-min Rain = 0
KFR1 232340Z 07003KT 29/12 A302 RMK A01 T02930122  RH  035%=      5-min Rain = 0
KFR1 232341Z 08003KT 29/13 A302 RMK A01 T02930125  RH  036%=      5-min Rain = 0
KFR1 232342Z 11002KT 29/13 A302 RMK A01 T02930125  RH  035%=      5-min Rain = 0
KFR1 232343Z 16002KT 29/12 A302 RMK A01 T02920124  RH  035%=      5-min Rain = 0
KFR1 232344Z 15003KT 29/12 A302 RMK A01 T02930123  RH  035%=      5-min Rain = 0
KFR1 232345Z 17005KT 29/13 A302 RMK A01 T02920125  RH  036%=      5-min Rain = 0
KFR1 232346Z 16005KT 29/13 A302 RMK A01 T02940125  RH  035%=      5-min Rain = 0
KFR1 232347Z 16002KT 30/13 A302 RMK A01 T02960125  RH  035%=      5-min Rain = 0
KFR1 232348Z 18006KT 30/12 A302 RMK A01 T02970124  RH  035%=      5-min Rain = 0
KFR1 232349Z 17007KT 30/12 A302 RMK A01 T02980124  RH  034%=      5-min Rain = 0
KFR1 232350Z 18006KT 30/13 A302 RMK A01 T02990125  RH  034%=      5-min Rain = 0
KFR1 232351Z 18004KT 30/12 A302 RMK A01 T02990124  RH  034%=      5-min Rain = 0
KFR1 232352Z 16005KT 30/12 A302 RMK A01 T02990123  RH  034%=      5-min Rain = 0
KFR1 232353Z 17006KT 30/13 A302 RMK A01 T02990125  RH  034%=      5-min Rain = 0
KFR1 232354Z 18005KT 30/12 A302 RMK A01 T02980123  RH  034%=      5-min Rain = 0
KFR1 232355Z 19006KT 30/12 A302 RMK A01 T02970124  RH  035%=      5-min Rain = 0
KFR1 232356Z 17004KT 30/13 A302 RMK A01 T02970125  RH  035%=      5-min Rain = 0
KFR1 232357Z 17005KT 30/13 A302 RMK A01 T02990125  RH  034%=      5-min Rain = 0
KFR1 232358Z 17004KT 30/12 A302 RMK A01 T03010124  RH  034%=      5-min Rain = 0
KFR1 232359Z 18005KT 30/13 A302 RMK A01 T03010125  RH  034%=      5-min Rain = 0
KFR1 240000Z 15005KT 30/12 A302 RMK A01 T03000123  RH  034%=      5-min Rain = 0
KFR1 240001Z 12003KT 30/12 A302 RMK A01 T03000124  RH  034%=      5-min Rain = 0
KFR1 240002Z 12005KT 30/12 A302 RMK A01 T03000123  RH  034%=      5-min Rain = 0
KFR1 240003Z 11005KT 30/13 A302 RMK A01 T02990125  RH  034%=      5-min Rain = 0
KFR1 240004Z 11009KT 30/12 A302 RMK A01 T03000124  RH  034%=      5-min Rain = 0
KFR1 240005Z 10008KT 30/12 A302 RMK A01 T02990122  RH  034%=      5-min Rain = 0
KFR1 240006Z 08008KT 30/12 A302 RMK A01 T02980123  RH  034%=      5-min Rain = 0
KFR1 240007Z 08008KT 30/12 A302 RMK A01 T02970120  RH  034%=      5-min Rain = 0
KFR1 240008Z 10005KT 30/12 A302 RMK A01 T02950120  RH  034%=      5-min Rain = 0
KFR1 240009Z 13004KT 29/12 A302 RMK A01 T02940120  RH  034%=      5-min Rain = 0
KFR1 240010Z 11003KT 29/12 A302 RMK A01 T02940121  RH  034%=      5-min Rain = 0
KFR1 240011Z 11006KT 30/12 A302 RMK A01 T02960123  RH  034%=      5-min Rain = 0
KFR1 240012Z 12005KT 30/12 A302 RMK A01 T02970123  RH  034%=      5-min Rain = 0
KFR1 240013Z 11007KT 30/12 A302 RMK A01 T02980124  RH  034%=      5-min Rain = 0
KFR1 240014Z 10011KT 30/12 A302 RMK A01 T02980123  RH  034%=      5-min Rain = 0
KFR1 240015Z 11009KT 30/12 A302 RMK A01 T02960121  RH  034%=      5-min Rain = 0
KFR1 240016Z 11012KT 30/12 A302 RMK A01 T02950122  RH  034%=      5-min Rain = 0
KFR1 240017Z 11010KT 29/12 A302 RMK A01 T02940121  RH  034%=      5-min Rain = 0
KFR1 240018Z 12010KT 29/12 A302 RMK A01 T02940121  RH  035%=      5-min Rain = 0
KFR1 240019Z 09010KT 29/12 A302 RMK A01 T02930121  RH  035%=      5-min Rain = 0
KFR1 240020Z 09009KT 29/12 A302 RMK A01 T02930121  RH  035%=      5-min Rain = 0
KFR1 240021Z 10008KT 29/12 A302 RMK A01 T02920121  RH  035%=      5-min Rain = 0
KFR1 240022Z 11010KT 29/12 A302 RMK A01 T02910120  RH  035%=      5-min Rain = 0
KFR1 240023Z 10009KT 29/12 A302 RMK A01 T02910120  RH  035%=      5-min Rain = 0
KFR1 240024Z 10008KT 29/12 A302 RMK A01 T02910120  RH  035%=      5-min Rain = 0
KFR1 240025Z 09009KT 29/12 A302 RMK A01 T02900121  RH  035%=      5-min Rain = 0
KFR1 240026Z 10009KT 29/12 A302 RMK A01 T02900122  RH  035%=      5-min Rain = 0
KFR1 240027Z 10010KT 29/12 A302 RMK A01 T02910121  RH  035%=      5-min Rain = 0
KFR1 240028Z 10008KT 29/12 A302 RMK A01 T02910122  RH  035%=      5-min Rain = 0
KFR1 240029Z 11011KT 29/12 A302 RMK A01 T02910122  RH  035%=      5-min Rain = 0
KFR1 240030Z 11011KT 29/12 A302 RMK A01 T02910119  RH  034%=      5-min Rain = 0
KFR1 240031Z 11010KT 29/12 A302 RMK A01 T02900119  RH  035%=      5-min Rain = 0
KFR1 240032Z 10012KT 29/12 A302 RMK A01 T02900119  RH  035%=      5-min Rain = 0
KFR1 240033Z 09009KT 29/12 A302 RMK A01 T02890119  RH  035%=      5-min Rain = 0
KFR1 240034Z 10008KT 29/12 A302 RMK A01 T02890120  RH  035%=      5-min Rain = 0
KFR1 240035Z 10008KT 29/12 A302 RMK A01 T02890119  RH  035%=      5-min Rain = 0
KFR1 240036Z 10007KT 29/12 A302 RMK A01 T02890119  RH  035%=      5-min Rain = 0
KFR1 240037Z 09006KT 29/12 A302 RMK A01 T02880119  RH  035%=      5-min Rain = 0
KFR1 240038Z 09007KT 29/12 A302 RMK A01 T02880120  RH  035%=      5-min Rain = 0
KFR1 240039Z 08007KT 29/12 A302 RMK A01 T02880120  RH  035%=      5-min Rain = 0
KFR1 240040Z 08010KT 29/12 A302 RMK A01 T02880119  RH  035%=      5-min Rain = 0
KFR1 240041Z 09009KT 29/12 A302 RMK A01 T02880120  RH  035%=      5-min Rain = 0
KFR1 240042Z 09009KT 29/12 A302 RMK A01 T02880121  RH  035%=      5-min Rain = 0
KFR1 240043Z 10006KT 29/12 A302 RMK A01 T02880117  RH  035%=      5-min Rain = 0
KFR1 240044Z 10008KT 29/12 A302 RMK A01 T02880119  RH  035%=      5-min Rain = 0
KFR1 240045Z 11010KT 29/12 A302 RMK A01 T02880119  RH  035%=      5-min Rain = 0
KFR1 240046Z 12008KT 29/12 A302 RMK A01 T02880118  RH  035%=      5-min Rain = 0
KFR1 240047Z 12008KT 29/12 A302 RMK A01 T02880118  RH  035%=      5-min Rain = 0
KFR1 240048Z 11007KT 29/12 A302 RMK A01 T02880118  RH  035%=      5-min Rain = 0
KFR1 240049Z 10008KT 29/12 A302 RMK A01 T02880119  RH  035%=      5-min Rain = 0
KFR1 240050Z 09009KT 29/12 A302 RMK A01 T02880118  RH  035%=      5-min Rain = 0
KFR1 240051Z 08007KT 29/12 A302 RMK A01 T02870118  RH  035%=      5-min Rain = 0
KFR1 240052Z 09007KT 29/12 A302 RMK A01 T02870119  RH  035%=      5-min Rain = 0
KFR1 240053Z 09009KT 29/12 A302 RMK A01 T02860119  RH  036%=      5-min Rain = 0
KFR1 240054Z 09009KT 29/12 A302 RMK A01 T02860120  RH  036%=      5-min Rain = 0
KFR1 240055Z 09009KT 29/12 A3021 RMK A01 T02860120  RH  036%=      5-min Rain = 0
KFR1 240056Z 09009KT 29/12 A3021 RMK A01 T02850119  RH  036%=      5-min Rain = 0
KFR1 240057Z 10012KT 29/12 A3021 RMK A01 T02850118  RH  036%=      5-min Rain = 0
KFR1 240058Z 09011KT 28/12 A3021 RMK A01 T02840117  RH  036%=      5-min Rain = 0
KFR1 240059Z 09011KT 28/12 A3021 RMK A01 T02830117  RH  036%=      5-min Rain = 0
KFR1 240100Z 09012KT 28/12 A3021 RMK A01 T02830117  RH  036%=      5-min Rain = 0
KFR1 240101Z 09009KT 28/12 A3021 RMK A01 T02820116  RH  036%=      5-min Rain = 0
KFR1 240102Z 09010KT 28/12 A3021 RMK A01 T02820117  RH  036%=      5-min Rain = 0
KFR1 240103Z 09009KT 28/12 A3021 RMK A01 T02820117  RH  036%=      5-min Rain = 0
KFR1 240104Z 09009KT 28/12 A3021 RMK A01 T02820117  RH  036%=      5-min Rain = 0
KFR1 240105Z 09010KT 28/12 A3021 RMK A01 T02820117  RH  036%=      5-min Rain = 0
KFR1 240106Z 08010KT 28/12 A3021 RMK A01 T02810117  RH  036%=      5-min Rain = 0
KFR1 240107Z 10010KT 28/12 A302 RMK A01 T02810116  RH  036%=      5-min Rain = 0
KFR1 240108Z 09009KT 28/12 A3021 RMK A01 T02820117  RH  036%=      5-min Rain = 0
KFR1 240109Z 10009KT 28/12 A302 RMK A01 T02810116  RH  036%=      5-min Rain = 0
KFR1 240110Z 10009KT 28/12 A3021 RMK A01 T02820116  RH  036%=      5-min Rain = 0
KFR1 240111Z 10007KT 28/12 A3021 RMK A01 T02820118  RH  036%=      5-min Rain = 0
KFR1 240112Z 10010KT 28/12 A3021 RMK A01 T02810117  RH  036%=      5-min Rain = 0
KFR1 240113Z 10009KT 28/12 A3021 RMK A01 T02810116  RH  036%=      5-min Rain = 0
KFR1 240114Z 09007KT 28/12 A3021 RMK A01 T02810117  RH  036%=      5-min Rain = 0
KFR1 240115Z 10009KT 28/12 A3021 RMK A01 T02810116  RH  036%=      5-min Rain = 0
KFR1 240116Z 10008KT 28/12 A3021 RMK A01 T02810116  RH  036%=      5-min Rain = 0
KFR1 240117Z 10008KT 28/12 A3021 RMK A01 T02810117  RH  036%=      5-min Rain = 0
KFR1 240118Z 10007KT 28/12 A3021 RMK A01 T02810117  RH  036%=      5-min Rain = 0
KFR1 240119Z 09007KT 28/12 A3021 RMK A01 T02800117  RH  036%=      5-min Rain = 0
KFR1 240120Z 10007KT 28/12 A3021 RMK A01 T02800117  RH  037%=      5-min Rain = 0
KFR1 240121Z 11010KT 28/12 A3021 RMK A01 T02790117  RH  036%=      5-min Rain = 0
KFR1 240122Z 09009KT 28/12 A3021 RMK A01 T02790116  RH  036%=      5-min Rain = 0
KFR1 240123Z 10008KT 28/12 A3021 RMK A01 T02790117  RH  036%=      5-min Rain = 0
KFR1 240124Z 09007KT 28/12 A3021 RMK A01 T02790116  RH  036%=      5-min Rain = 0
KFR1 240125Z 09008KT 28/12 A3021 RMK A01 T02780116  RH  036%=      5-min Rain = 0
KFR1 240126Z 09009KT 28/12 A3021 RMK A01 T02780116  RH  037%=      5-min Rain = 0
KFR1 240127Z 10010KT 28/12 A3021 RMK A01 T02770115  RH  036%=      5-min Rain = 0
KFR1 240128Z 10010KT 28/12 A3021 RMK A01 T02780115  RH  036%=      5-min Rain = 0
KFR1 240129Z 11012KT 28/12 A3021 RMK A01 T02770116  RH  037%=      5-min Rain = 0
KFR1 240130Z 11012KT 28/12 A3021 RMK A01 T02770116  RH  037%=      5-min Rain = 0
KFR1 240131Z 10011KT 28/12 A3021 RMK A01 T02760115  RH  037%=      5-min Rain = 0
KFR1 240132Z 10010KT 28/12 A3021 RMK A01 T02760115  RH  037%=      5-min Rain = 0
KFR1 240133Z 09010KT 28/12 A3021 RMK A01 T02750115  RH  037%=      5-min Rain = 0
KFR1 240134Z 09010KT 28/12 A3021 RMK A01 T02750115  RH  037%=      5-min Rain = 0
KFR1 240135Z 10009KT 27/12 A3021 RMK A01 T02740115  RH  037%=      5-min Rain = 0
KFR1 240136Z 10008KT 27/12 A3021 RMK A01 T02730115  RH  037%=      5-min Rain = 0
KFR1 240137Z 11009KT 27/12 A3021 RMK A01 T02720115  RH  038%=      5-min Rain = 0
KFR1 240138Z 10011KT 27/12 A3021 RMK A01 T02720115  RH  038%=      5-min Rain = 0
KFR1 240139Z 10010KT 27/12 A3021 RMK A01 T02720116  RH  038%=      5-min Rain = 0
KFR1 240140Z 10011KT 27/12 A3021 RMK A01 T02710115  RH  038%=      5-min Rain = 0
KFR1 240141Z 10011KT 27/12 A3021 RMK A01 T02710116  RH  038%=      5-min Rain = 0
KFR1 240142Z 10011KT 27/12 A3021 RMK A01 T02700115  RH  038%=      5-min Rain = 0
KFR1 240143Z 10009KT 27/12 A3021 RMK A01 T02710116  RH  038%=      5-min Rain = 0
KFR1 240144Z 10010KT 27/12 A3021 RMK A01 T02700116  RH  038%=      5-min Rain = 0
KFR1 240145Z 11010KT 27/12 A3021 RMK A01 T02700115  RH  038%=      5-min Rain = 0
KFR1 240146Z 11010KT 27/12 A3021 RMK A01 T02700116  RH  038%=      5-min Rain = 0
KFR1 240147Z 11010KT 27/12 A3021 RMK A01 T02700116  RH  038%=      5-min Rain = 0
KFR1 240148Z 10010KT 27/12 A3021 RMK A01 T02690116  RH  038%=      5-min Rain = 0
KFR1 240149Z 10009KT 27/12 A3021 RMK A01 T02690115  RH  038%=      5-min Rain = 0
KFR1 240150Z 10009KT 27/12 A3021 RMK A01 T02690116  RH  038%=      5-min Rain = 0
KFR1 240151Z 11009KT 27/12 A3021 RMK A01 T02690116  RH  039%=      5-min Rain = 0
KFR1 240152Z 11008KT 27/12 A3021 RMK A01 T02680116  RH  039%=      5-min Rain = 0
KFR1 240153Z 11009KT 27/12 A3021 RMK A01 T02670115  RH  039%=      5-min Rain = 0
KFR1 240154Z 11008KT 27/12 A3021 RMK A01 T02670116  RH  039%=      5-min Rain = 0
KFR1 240155Z 12008KT 27/12 A3021 RMK A01 T02660116  RH  039%=      5-min Rain = 0
KFR1 240156Z 11009KT 27/12 A3021 RMK A01 T02660116  RH  039%=      5-min Rain = 0
KFR1 240157Z 11009KT 27/12 A3021 RMK A01 T02650115  RH  039%=      5-min Rain = 0
KFR1 240158Z 11009KT 27/12 A3021 RMK A01 T02650116  RH  039%=      5-min Rain = 0
KFR1 240159Z 11011KT 26/12 A3021 RMK A01 T02640115  RH  039%=      5-min Rain = 0
KFR1 240200Z 11010KT 26/12 A3021 RMK A01 T02640116  RH  039%=      5-min Rain = 0
KFR1 240201Z 11010KT 26/12 A3021 RMK A01 T02640116  RH  039%=      5-min Rain = 0
KFR1 240202Z 11009KT 26/12 A3021 RMK A01 T02640115  RH  039%=      5-min Rain = 0
KFR1 240203Z 10009KT 26/12 A3021 RMK A01 T02640116  RH  040%=      5-min Rain = 0
KFR1 240204Z 10008KT 26/12 A3021 RMK A01 T02630116  RH  040%=      5-min Rain = 0
KFR1 240205Z 10008KT 26/12 A3021 RMK A01 T02620116  RH  040%=      5-min Rain = 0
KFR1 240206Z 10010KT 26/12 A3021 RMK A01 T02610116  RH  040%=      5-min Rain = 0
KFR1 240207Z 11009KT 26/12 A3021 RMK A01 T02610115  RH  040%=      5-min Rain = 0
KFR1 240208Z 10009KT 26/12 A3021 RMK A01 T02610116  RH  040%=      5-min Rain = 0
KFR1 240209Z 11010KT 26/12 A3021 RMK A01 T02600116  RH  040%=      5-min Rain = 0
KFR1 240210Z 10009KT 26/12 A3021 RMK A01 T02600115  RH  040%=      5-min Rain = 0
KFR1 240211Z 10010KT 26/12 A3021 RMK A01 T02600116  RH  041%=      5-min Rain = 0
KFR1 240212Z 10011KT 26/12 A3021 RMK A01 T02600116  RH  041%=      5-min Rain = 0
KFR1 240213Z 11009KT 26/12 A3021 RMK A01 T02590115  RH  041%=      5-min Rain = 0
KFR1 240214Z 10009KT 26/12 A3021 RMK A01 T02590116  RH  041%=      5-min Rain = 0
KFR1 240215Z 11009KT 26/12 A3021 RMK A01 T02590116  RH  041%=      5-min Rain = 0
KFR1 240216Z 11009KT 26/12 A3021 RMK A01 T02580116  RH  041%=      5-min Rain = 0
KFR1 240217Z 11008KT 26/12 A3021 RMK A01 T02580116  RH  041%=      5-min Rain = 0
KFR1 240218Z 10010KT 26/12 A3021 RMK A01 T02570115  RH  041%=      5-min Rain = 0
KFR1 240219Z 10009KT 26/12 A3021 RMK A01 T02570115  RH  041%=      5-min Rain = 0
KFR1 240220Z 10011KT 26/12 A3021 RMK A01 T02570116  RH  041%=      5-min Rain = 0
KFR1 240221Z 10011KT 26/12 A3021 RMK A01 T02570115  RH  041%=      5-min Rain = 0
KFR1 240222Z 11010KT 26/12 A3021 RMK A01 T02570115  RH  041%=      5-min Rain = 0
KFR1 240223Z 11010KT 26/12 A3021 RMK A01 T02570115  RH  041%=      5-min Rain = 0
KFR1 240224Z 10010KT 26/12 A3021 RMK A01 T02560115  RH  041%=      5-min Rain = 0
KFR1 240225Z 10009KT 26/12 A3021 RMK A01 T02550115  RH  041%=      5-min Rain = 0
KFR1 240226Z 10010KT 26/12 A3021 RMK A01 T02550115  RH  041%=      5-min Rain = 0
KFR1 240227Z 10010KT 26/12 A3021 RMK A01 T02550115  RH  042%=      5-min Rain = 0
KFR1 240228Z 10011KT 25/12 A3021 RMK A01 T02540115  RH  042%=      5-min Rain = 0
KFR1 240229Z 11010KT 25/12 A3022 RMK A01 T02540115  RH  042%=      5-min Rain = 0
KFR1 240230Z 10010KT 25/12 A3022 RMK A01 T02540115  RH  042%=      5-min Rain = 0
KFR1 240231Z 10010KT 25/11 A3022 RMK A01 T02530114  RH  042%=      5-min Rain = 0
KFR1 240232Z 10010KT 25/11 A3022 RMK A01 T02530114  RH  042%=      5-min Rain = 0
KFR1 240233Z 11009KT 25/11 A3022 RMK A01 T02520114  RH  042%=      5-min Rain = 0
KFR1 240234Z 10010KT 25/11 A3022 RMK A01 T02520114  RH  042%=      5-min Rain = 0
KFR1 240235Z 10010KT 25/11 A3022 RMK A01 T02510114  RH  042%=      5-min Rain = 0
KFR1 240236Z 11009KT 25/11 A3022 RMK A01 T02510114  RH  042%=      5-min Rain = 0
KFR1 240237Z 11011KT 25/11 A3022 RMK A01 T02510114  RH  042%=      5-min Rain = 0
KFR1 240238Z 11010KT 25/11 A3022 RMK A01 T02510114  RH  042%=      5-min Rain = 0
KFR1 240239Z 11012KT 25/11 A3022 RMK A01 T02510114  RH  042%=      5-min Rain = 0
KFR1 240240Z 11010KT 25/11 A3022 RMK A01 T02510114  RH  042%=      5-min Rain = 0
KFR1 240241Z 11010KT 25/11 A3022 RMK A01 T02500114  RH  042%=      5-min Rain = 0
KFR1 240242Z 11010KT 25/11 A3022 RMK A01 T02500114  RH  042%=      5-min Rain = 0
KFR1 240243Z 11010KT 25/11 A3022 RMK A01 T02490114  RH  043%=      5-min Rain = 0
KFR1 240244Z 12009KT 25/11 A3022 RMK A01 T02490114  RH  043%=      5-min Rain = 0
KFR1 240245Z 12009KT 25/11 A3022 RMK A01 T02490114  RH  043%=      5-min Rain = 0
KFR1 240246Z 12011KT 25/11 A3022 RMK A01 T02490113  RH  043%=      5-min Rain = 0
KFR1 240247Z 12011KT 25/11 A3022 RMK A01 T02500113  RH  042%=      5-min Rain = 0
KFR1 240248Z 11011KT 25/11 A3022 RMK A01 T02500114  RH  042%=      5-min Rain = 0
KFR1 240249Z 12008KT 25/11 A3022 RMK A01 T02500114  RH  042%=      5-min Rain = 0
KFR1 240250Z 11009KT 25/11 A3022 RMK A01 T02490114  RH  043%=      5-min Rain = 0
KFR1 240251Z 11009KT 25/11 A3022 RMK A01 T02480114  RH  043%=      5-min Rain = 0
KFR1 240252Z 11011KT 25/11 A3023 RMK A01 T02480114  RH  043%=      5-min Rain = 0
KFR1 240253Z 12010KT 25/11 A3022 RMK A01 T02480113  RH  043%=      5-min Rain = 0
KFR1 240254Z 12009KT 25/11 A3023 RMK A01 T02490113  RH  043%=      5-min Rain = 0
KFR1 240255Z 12009KT 25/11 A3023 RMK A01 T02490113  RH  043%=      5-min Rain = 0
KFR1 240256Z 12010KT 25/11 A3023 RMK A01 T02480113  RH  043%=      5-min Rain = 0
KFR1 240257Z 12010KT 25/11 A3023 RMK A01 T02480113  RH  043%=      5-min Rain = 0
KFR1 240258Z 12009KT 25/11 A3023 RMK A01 T02480113  RH  043%=      5-min Rain = 0
KFR1 240259Z 12011KT 25/11 A3023 RMK A01 T02480113  RH  043%=      5-min Rain = 0
KFR1 240300Z 12010KT 25/11 A3023 RMK A01 T02480113  RH  043%=      5-min Rain = 0
KFR1 240301Z 12009KT 25/11 A3023 RMK A01 T02480113  RH  043%=      5-min Rain = 0
KFR1 240302Z 12009KT 25/11 A3023 RMK A01 T02470114  RH  043%=      5-min Rain = 0
KFR1 240303Z 12010KT 25/11 A3023 RMK A01 T02460114  RH  043%=      5-min Rain = 0
KFR1 240304Z 12009KT 25/11 A3023 RMK A01 T02460114  RH  043%=      5-min Rain = 0
KFR1 240305Z 12008KT 25/11 A3023 RMK A01 T02460114  RH  043%=      5-min Rain = 0
KFR1 240306Z 12009KT 25/11 A3023 RMK A01 T02460114  RH  044%=      5-min Rain = 0
KFR1 240307Z 12011KT 25/11 A3023 RMK A01 T02450114  RH  044%=      5-min Rain = 0
KFR1 240308Z 12008KT 25/11 A3023 RMK A01 T02450114  RH  044%=      5-min Rain = 0
KFR1 240309Z 12008KT 25/11 A3023 RMK A01 T02450114  RH  044%=      5-min Rain = 0
KFR1 240310Z 12011KT 25/11 A3023 RMK A01 T02450114  RH  044%=      5-min Rain = 0
KFR1 240311Z 12008KT 25/11 A3023 RMK A01 T02450114  RH  044%=      5-min Rain = 0
KFR1 240312Z 13011KT 25/11 A3023 RMK A01 T02450114  RH  044%=      5-min Rain = 0
KFR1 240313Z 12010KT 24/11 A3023 RMK A01 T02440114  RH  044%=      5-min Rain = 0
KFR1 240314Z 12009KT 24/11 A3023 RMK A01 T02440114  RH  044%=      5-min Rain = 0
KFR1 240315Z 12010KT 24/12 A3023 RMK A01 T02440115  RH  044%=      5-min Rain = 0
KFR1 240316Z 12011KT 24/12 A3023 RMK A01 T02430115  RH  044%=      5-min Rain = 0
KFR1 240317Z 12009KT 24/12 A3023 RMK A01 T02440115  RH  045%=      5-min Rain = 0
KFR1 240318Z 13010KT 24/12 A3024 RMK A01 T02430115  RH  045%=      5-min Rain = 0
KFR1 240319Z 13008KT 24/12 A3024 RMK A01 T02430115  RH  045%=      5-min Rain = 0
KFR1 240320Z 13010KT 24/12 A3024 RMK A01 T02420115  RH  045%=      5-min Rain = 0
KFR1 240321Z 12011KT 24/12 A3024 RMK A01 T02420116  RH  045%=      5-min Rain = 0
KFR1 240322Z 12012KT 24/12 A3024 RMK A01 T02420116  RH  045%=      5-min Rain = 0
KFR1 240323Z 12010KT 24/12 A3024 RMK A01 T02420116  RH  045%=      5-min Rain = 0
KFR1 240324Z 13010KT 24/12 A3024 RMK A01 T02410116  RH  045%=      5-min Rain = 0
KFR1 240325Z 12009KT 24/12 A3024 RMK A01 T02410117  RH  046%=      5-min Rain = 0
KFR1 240326Z 13010KT 24/12 A3024 RMK A01 T02410117  RH  046%=      5-min Rain = 0
KFR1 240327Z 13010KT 24/12 A3024 RMK A01 T02400117  RH  046%=      5-min Rain = 0
KFR1 240328Z 13012KT 24/12 A3024 RMK A01 T02400117  RH  046%=      5-min Rain = 0
KFR1 240329Z 13010KT 24/12 A3024 RMK A01 T02400117  RH  046%=      5-min Rain = 0
KFR1 240330Z 13010KT 24/12 A3024 RMK A01 T02400117  RH  046%=      5-min Rain = 0
KFR1 240331Z 12011KT 24/12 A3024 RMK A01 T02400117  RH  046%=      5-min Rain = 0
KFR1 240332Z 13011KT 24/12 A3024 RMK A01 T02390117  RH  046%=      5-min Rain = 0
KFR1 240333Z 13011KT 24/12 A3024 RMK A01 T02390117  RH  046%=      5-min Rain = 0
KFR1 240334Z 13011KT 24/12 A3024 RMK A01 T02390117  RH  047%=      5-min Rain = 0
KFR1 240335Z 13010KT 24/12 A3024 RMK A01 T02390118  RH  047%=      5-min Rain = 0
KFR1 240336Z 13011KT 24/12 A3024 RMK A01 T02380117  RH  047%=      5-min Rain = 0
KFR1 240337Z 13009KT 24/12 A3024 RMK A01 T02380118  RH  047%=      5-min Rain = 0
KFR1 240338Z 13011KT 24/12 A3024 RMK A01 T02370118  RH  047%=      5-min Rain = 0
KFR1 240339Z 12010KT 24/12 A3024 RMK A01 T02370118  RH  047%=      5-min Rain = 0
KFR1 240340Z 13010KT 24/12 A3024 RMK A01 T02360118  RH  047%=      5-min Rain = 0
KFR1 240341Z 13010KT 24/12 A3024 RMK A01 T02360118  RH  047%=      5-min Rain = 0
KFR1 240342Z 12009KT 24/12 A3024 RMK A01 T02360118  RH  048%=      5-min Rain = 0
KFR1 240343Z 12011KT 24/12 A3024 RMK A01 T02350118  RH  048%=      5-min Rain = 0
KFR1 240344Z 12010KT 24/12 A3024 RMK A01 T02350118  RH  048%=      5-min Rain = 0
KFR1 240345Z 13011KT 24/12 A3024 RMK A01 T02350118  RH  048%=      5-min Rain = 0
KFR1 240346Z 13010KT 24/12 A3024 RMK A01 T02350118  RH  048%=      5-min Rain = 0
KFR1 240347Z 13010KT 24/12 A3024 RMK A01 T02350118  RH  048%=      5-min Rain = 0
KFR1 240348Z 13011KT 24/12 A3024 RMK A01 T02350118  RH  048%=      5-min Rain = 0
KFR1 240349Z 13010KT 24/12 A3024 RMK A01 T02360118  RH  048%=      5-min Rain = 0
KFR1 240350Z 13010KT 24/12 A3024 RMK A01 T02350118  RH  048%=      5-min Rain = 0
KFR1 240351Z 14010KT 24/12 A3024 RMK A01 T02350118  RH  048%=      5-min Rain = 0
KFR1 240352Z 14010KT 24/12 A3024 RMK A01 T02350118  RH  048%=      5-min Rain = 0
KFR1 240353Z 14009KT 23/12 A3024 RMK A01 T02340118  RH  048%=      5-min Rain = 0
KFR1 240354Z 14008KT 23/12 A3024 RMK A01 T02330119  RH  048%=      5-min Rain = 0
KFR1 240355Z 14009KT 23/12 A3025 RMK A01 T02320119  RH  049%=      5-min Rain = 0
KFR1 240356Z 15008KT 23/12 A3025 RMK A01 T02310118  RH  049%=      5-min Rain = 0
KFR1 240357Z 15007KT 23/12 A3025 RMK A01 T02300118  RH  049%=      5-min Rain = 0
KFR1 240358Z 14008KT 23/12 A3025 RMK A01 T02280118  RH  050%=      5-min Rain = 0
KFR1 240359Z 15008KT 23/12 A3025 RMK A01 T02270118  RH  050%=      5-min Rain = 0
KFR1 240400Z 15008KT 23/12 A3025 RMK A01 T02270119  RH  050%=      5-min Rain = 0
KFR1 240401Z 15008KT 23/12 A3025 RMK A01 T02260118  RH  051%=      5-min Rain = 0
KFR1 240402Z 14007KT 23/12 A3025 RMK A01 T02250119  RH  051%=      5-min Rain = 0
KFR1 240403Z 14007KT 23/12 A3025 RMK A01 T02250118  RH  051%=      5-min Rain = 0
KFR1 240404Z 14007KT 22/12 A3025 RMK A01 T02240118  RH  051%=      5-min Rain = 0
KFR1 240405Z 14007KT 22/12 A3025 RMK A01 T02230118  RH  051%=      5-min Rain = 0
KFR1 240406Z 14008KT 22/12 A3025 RMK A01 T02220118  RH  052%=      5-min Rain = 0
KFR1 240407Z 14008KT 22/12 A3025 RMK A01 T02220118  RH  052%=      5-min Rain = 0
KFR1 240408Z 14008KT 22/12 A3025 RMK A01 T02220118  RH  052%=      5-min Rain = 0
KFR1 240409Z 13008KT 22/12 A3025 RMK A01 T02210118  RH  052%=      5-min Rain = 0
KFR1 240410Z 14009KT 22/12 A3025 RMK A01 T02210118  RH  052%=      5-min Rain = 0
KFR1 240411Z 13008KT 22/12 A3025 RMK A01 T02210119  RH  052%=      5-min Rain = 0
KFR1 240412Z 14008KT 22/12 A3025 RMK A01 T02210119  RH  052%=      5-min Rain = 0
KFR1 240413Z 14008KT 22/12 A3025 RMK A01 T02210119  RH  052%=      5-min Rain = 0
KFR1 240414Z 14008KT 22/12 A3025 RMK A01 T02220119  RH  052%=      5-min Rain = 0
KFR1 240415Z 14008KT 22/12 A3025 RMK A01 T02220118  RH  052%=      5-min Rain = 0
KFR1 240416Z 14009KT 22/12 A3025 RMK A01 T02220119  RH  052%=      5-min Rain = 0
KFR1 240417Z 13008KT 22/12 A3025 RMK A01 T02220119  RH  052%=      5-min Rain = 0
KFR1 240418Z 13008KT 22/12 A3025 RMK A01 T02220119  RH  052%=      5-min Rain = 0
KFR1 240419Z 13009KT 22/12 A3025 RMK A01 T02220119  RH  052%=      5-min Rain = 0
KFR1 240420Z 14008KT 22/12 A3025 RMK A01 T02220119  RH  052%=      5-min Rain = 0
KFR1 240421Z 13009KT 22/12 A3025 RMK A01 T02220119  RH  052%=      5-min Rain = 0
KFR1 240422Z 13009KT 22/12 A3025 RMK A01 T02230119  RH  052%=      5-min Rain = 0
KFR1 240423Z 13009KT 22/12 A3025 RMK A01 T02230119  RH  052%=      5-min Rain = 0
KFR1 240424Z 14009KT 22/12 A3025 RMK A01 T02230119  RH  052%=      5-min Rain = 0
KFR1 240425Z 13009KT 22/12 A3025 RMK A01 T02230119  RH  052%=      5-min Rain = 0
KFR1 240426Z 13009KT 22/12 A3025 RMK A01 T02230119  RH  052%=      5-min Rain = 0
KFR1 240427Z 13010KT 22/12 A3025 RMK A01 T02230119  RH  052%=      5-min Rain = 0
KFR1 240428Z 13010KT 22/12 A3025 RMK A01 T02230119  RH  051%=      5-min Rain = 0
KFR1 240429Z 13008KT 22/12 A3025 RMK A01 T02240119  RH  051%=      5-min Rain = 0
KFR1 240430Z 13008KT 22/12 A3025 RMK A01 T02240119  RH  051%=      5-min Rain = 0
KFR1 240431Z 13009KT 22/12 A3025 RMK A01 T02240119  RH  051%=      5-min Rain = 0
KFR1 240432Z 15007KT 22/12 A3025 RMK A01 T02240119  RH  051%=      5-min Rain = 0
KFR1 240433Z 15007KT 22/12 A3025 RMK A01 T02240119  RH  051%=      5-min Rain = 0
KFR1 240434Z 15007KT 22/12 A3025 RMK A01 T02220119  RH  052%=      5-min Rain = 0
KFR1 240435Z 15008KT 22/12 A3025 RMK A01 T02200119  RH  053%=      5-min Rain = 0
KFR1 240436Z 14008KT 22/12 A3025 RMK A01 T02180119  RH  053%=      5-min Rain = 0
KFR1 240437Z 14008KT 22/12 A3025 RMK A01 T02170119  RH  054%=      5-min Rain = 0
KFR1 240438Z 15008G13KT 22/12 A3025 RMK A01 T02160119  RH  054%=      5-min Rain = 0
KFR1 240439Z 14008KT 22/12 A3025 RMK A01 T02160119  RH  054%=      5-min Rain = 0
KFR1 240440Z 14009KT 22/12 A3025 RMK A01 T02150119  RH  054%=      5-min Rain = 0
KFR1 240441Z 14010KT 22/12 A3025 RMK A01 T02150119  RH  054%=      5-min Rain = 0
KFR1 240442Z 15009KT 21/12 A3025 RMK A01 T02140119  RH  055%=      5-min Rain = 0
KFR1 240443Z 14008KT 21/12 A3025 RMK A01 T02140119  RH  055%=      5-min Rain = 0
KFR1 240444Z 14009KT 21/12 A3025 RMK A01 T02140119  RH  055%=      5-min Rain = 0
KFR1 240445Z 15008KT 21/12 A3025 RMK A01 T02140119  RH  055%=      5-min Rain = 0
KFR1 240446Z 15008KT 21/12 A3025 RMK A01 T02130119  RH  055%=      5-min Rain = 0
KFR1 240447Z 15008KT 21/12 A3025 RMK A01 T02130120  RH  055%=      5-min Rain = 0
KFR1 240448Z 15007KT 21/12 A3026 RMK A01 T02130119  RH  055%=      5-min Rain = 0
KFR1 240449Z 15007KT 21/12 A3026 RMK A01 T02120119  RH  055%=      5-min Rain = 0
KFR1 240450Z 15008KT 21/12 A3026 RMK A01 T02120119  RH  055%=      5-min Rain = 0
KFR1 240451Z 15009KT 21/12 A3026 RMK A01 T02120119  RH  055%=      5-min Rain = 0
KFR1 240452Z 15007KT 21/12 A3026 RMK A01 T02120119  RH  055%=      5-min Rain = 0
KFR1 240453Z 15008KT 21/12 A3026 RMK A01 T02130119  RH  055%=      5-min Rain = 0
KFR1 240454Z 15010KT 21/12 A3026 RMK A01 T02130119  RH  055%=      5-min Rain = 0
KFR1 240455Z 16009KT 21/12 A3026 RMK A01 T02140119  RH  055%=      5-min Rain = 0
KFR1 240456Z 16009KT 21/12 A3026 RMK A01 T02140119  RH  055%=      5-min Rain = 0
KFR1 240457Z 16009G14KT 21/12 A3026 RMK A01 T02140119  RH  055%=      5-min Rain = 0
KFR1 240458Z 15009KT 22/12 A3026 RMK A01 T02150119  RH  054%=      5-min Rain = 0
KFR1 240459Z 15010G15KT 22/12 A3026 RMK A01 T02150119  RH  054%=      5-min Rain = 0

Page generated in 0.1228 seconds.